HV5801 / PH-HXB 7700 Squawk Report (3rd of October, 2022)

Aircraft B738 Reg No. PH-HXB Age 6 years old
Model 737 Jet engines 2 First flight 25-02-16
Registered 10-04-19 Rollout N/A Delivered 10-03-16
Construction No. 41340 Line No. 5811 Series 8K2
ADSHEX 48520A Airline name Transavia Owner N/A
Airfield based Amsterdam-Schiphol~Noord-Holland~PH First tracked N/A
Time Lat Lon Altitude Heading Speed Vertical Rate
2022-10-03 05:42:50 GMT 50.040951 8.557536 0 160 0 0
2022-10-03 05:42:32 GMT 50.040943 8.557533 0 160 0 0
2022-10-03 05:42:21 GMT 50.041130 8.557422 0 160 9 0
2022-10-03 05:42:20 GMT 50.041176 8.557403 0 160 9 0
2022-10-03 05:42:17 GMT 50.041294 8.557338 0 160 8 0
2022-10-03 05:42:14 GMT 50.041374 8.557292 0 160 8 0
2022-10-03 05:42:13 GMT 50.041443 8.557247 0 157 8 0
2022-10-03 05:42:09 GMT 50.041557 8.557193 0 151 7 0
2022-10-03 05:42:08 GMT 50.041592 8.557157 0 149 7 0
2022-10-03 05:42:06 GMT 50.041637 8.557121 0 140 7 0
2022-10-03 05:42:05 GMT 50.041664 8.557106 0 132 7 0
2022-10-03 05:42:04 GMT 50.041695 8.557085 0 126 7 0
2022-10-03 05:41:41 GMT 50.041561 8.555900 0 70 12 0
2022-10-03 05:41:36 GMT 50.041466 8.555513 0 70 12 0
2022-10-03 05:41:35 GMT 50.041443 8.555436 0 70 12 0
2022-10-03 05:41:33 GMT 50.041340 8.554971 0 70 11 0
2022-10-03 05:41:29 GMT 50.041340 8.554971 0 70 11 0
2022-10-03 05:41:27 GMT 50.041317 8.554862 0 67 11 0
2022-10-03 05:41:25 GMT 50.041260 8.554663 0 64 11 0
2022-10-03 05:41:07 GMT 50.040642 8.554118 0 337 9 0
2022-10-03 05:41:06 GMT 50.040607 8.554137 0 337 9 0
2022-10-03 05:40:49 GMT 50.039898 8.554545 0 345 10 0
2022-10-03 05:40:42 GMT 50.039577 8.554609 0 19 11 0
2022-10-03 05:40:40 GMT 50.039490 8.554582 0 30 11 0
2022-10-03 05:40:38 GMT 50.039440 8.554537 0 36 11 0
2022-10-03 05:40:36 GMT 50.039314 8.554374 0 56 11 0
2022-10-03 05:40:31 GMT 50.039211 8.554139 0 67 12 0
2022-10-03 05:40:27 GMT 50.039116 8.553747 0 70 13 0
2022-10-03 05:40:15 GMT 50.038891 8.552802 0 70 12 0
2022-10-03 05:40:11 GMT 50.038815 8.552485 0 70 12 0
2022-10-03 05:39:43 GMT 50.038456 8.550995 0 70 8 0
2022-10-03 05:39:40 GMT 50.038418 8.550834 0 70 8 0
2022-10-03 05:39:36 GMT 50.038376 8.550634 0 70 8 0
2022-10-03 05:39:32 GMT 50.038319 8.550417 0 70 8 0
2022-10-03 05:39:30 GMT 50.038296 8.550327 0 70 8 0
2022-10-03 05:39:29 GMT 50.038280 8.550240 0 70 8 0
2022-10-03 05:39:27 GMT 50.038258 8.550166 0 70 8 0
2022-10-03 05:39:23 GMT 50.038204 8.549929 0 70 8 0
2022-10-03 05:39:12 GMT 50.038078 8.549405 0 70 8 0
2022-10-03 05:39:07 GMT 50.038010 8.549152 0 67 9 0
2022-10-03 05:39:02 GMT 50.037952 8.548863 0 59 8 0
2022-10-03 05:38:56 GMT 50.037838 8.548592 0 39 7 0
2022-10-03 05:38:52 GMT 50.037754 8.548495 0 25 6 0
2022-10-03 05:38:50 GMT 50.037708 8.548440 0 16 5 0
2022-10-03 05:38:44 GMT 50.037582 8.548365 0 357 4 0
2022-10-03 05:38:36 GMT 50.037426 8.548375 0 334 3 0
2022-10-03 05:38:33 GMT 50.037426 8.548375 0 334 3 0
2022-10-03 05:38:31 GMT 50.037403 8.548393 0 331 3 0
2022-10-03 05:38:28 GMT 50.037369 8.548411 0 329 3 0
2022-10-03 05:38:25 GMT 50.037334 8.548421 0 326 4 0
2022-10-03 05:38:23 GMT 50.037254 8.548502 0 317 5 0
2022-10-03 05:38:20 GMT 50.037254 8.548502 0 315 5 0
2022-10-03 05:38:18 GMT 50.037220 8.548538 0 309 5 0
2022-10-03 05:38:16 GMT 50.037220 8.548538 0 309 5 0
2022-10-03 05:38:15 GMT 50.037209 8.548570 0 306 6 0
2022-10-03 05:38:13 GMT 50.037174 8.548607 0 300 6 0
2022-10-03 05:38:11 GMT 50.037140 8.548681 0 295 7 0
2022-10-03 05:38:08 GMT 50.037102 8.548774 0 286 9 0
2022-10-03 05:38:07 GMT 50.037090 8.548866 0 284 10 0
2022-10-03 05:38:06 GMT 50.037048 8.549134 0 281 14 0
2022-10-03 05:38:03 GMT 50.037048 8.549134 0 281 14 0
2022-10-03 05:37:58 GMT 50.036987 8.549646 0 278 18 0
2022-10-03 05:37:55 GMT 50.036964 8.549943 0 278 19 0
2022-10-03 05:37:54 GMT 50.036942 8.550128 0 278 19 0
2022-10-03 05:37:52 GMT 50.036911 8.550381 0 278 21 0
2022-10-03 05:37:49 GMT 50.036865 8.550815 0 278 22 0
2022-10-03 05:37:40 GMT 50.036922 8.552513 37,000 255 34 0
2022-10-03 05:37:10 GMT 50.039097 8.561674 -75 250 74 0
2022-10-03 05:36:38 GMT 50.045288 8.587550 125 250 154 -832
2022-10-03 05:36:36 GMT 50.045891 8.590195 125 250 154 -704
2022-10-03 05:36:35 GMT 50.046158 8.591309 125 250 154 -640
2022-10-03 05:36:33 GMT 50.046707 8.593622 150 250 154 -576
2022-10-03 05:36:31 GMT 50.047211 8.595645 175 250 153 -768
2022-10-03 05:36:27 GMT 50.048775 8.602221 250 250 151 -896
2022-10-03 05:36:25 GMT 50.048775 8.602221 250 250 151 -896
2022-10-03 05:36:24 GMT 50.048904 8.602729 275 250 150 -832
2022-10-03 05:36:21 GMT 50.049683 8.605909 300 250 150 -768
2022-10-03 05:36:19 GMT 50.050598 8.609884 350 250 149 -896
2022-10-03 05:36:16 GMT 50.050873 8.610896 375 250 149 -896
2022-10-03 05:36:15 GMT 50.051105 8.611945 400 250 149 -832
2022-10-03 05:36:14 GMT 50.051476 8.613430 400 250 149 -768
2022-10-03 05:36:11 GMT 50.051971 8.615522 450 250 149 -768
2022-10-03 05:36:09 GMT 50.052658 8.618413 475 250 151 -768
2022-10-03 05:36:07 GMT 50.053116 8.620509 500 250 151 -768
2022-10-03 05:36:05 GMT 50.053432 8.621892 525 250 151 -768
2022-10-03 05:36:04 GMT 50.054077 8.624484 550 250 153 -896
2022-10-03 05:36:01 GMT 50.054535 8.626436 575 250 151 -768
2022-10-03 05:36:00 GMT 50.054993 8.628460 600 250 152 -832
2022-10-03 05:35:58 GMT 50.055267 8.629544 625 250 152 -832
2022-10-03 05:35:57 GMT 50.055496 8.630628 625 250 152 -832
2022-10-03 05:35:56 GMT 50.056046 8.632724 650 250 153 -768
2022-10-03 05:35:54 GMT 50.056316 8.633843 675 250 153 -768
2022-10-03 05:35:52 GMT 50.056782 8.635922 700 250 153 -832
2022-10-03 05:35:50 GMT 50.057236 8.637711 725 250 153 -896
2022-10-03 05:35:49 GMT 50.057529 8.639040 750 250 153 -896
2022-10-03 05:35:48 GMT 50.057762 8.639931 750 250 153 -832
2022-10-03 05:35:47 GMT 50.058014 8.641036 775 250 153 -832
2022-10-03 05:35:46 GMT 50.058506 8.643197 800 250 154 -896
2022-10-03 05:35:44 GMT 50.058784 8.644162 825 250 154 -896
2022-10-03 05:35:43 GMT 50.059063 8.645349 825 250 154 -896
2022-10-03 05:35:42 GMT 50.059578 8.647428 875 250 153 -896
2022-10-03 05:35:40 GMT 50.059811 8.648393 875 250 153 -896
2022-10-03 05:35:38 GMT 50.060226 8.650100 900 250 153 -896
2022-10-03 05:35:37 GMT 50.060459 8.650991 925 251 153 -832
2022-10-03 05:35:36 GMT 50.061020 8.653515 950 251 153 -768
2022-10-03 05:35:34 GMT 50.061253 8.654406 975 251 153 -768
2022-10-03 05:35:33 GMT 50.061440 8.655371 975 251 153 -768
2022-10-03 05:35:31 GMT 50.061996 8.657660 1,000 251 153 -768
2022-10-03 05:35:30 GMT 50.062225 8.658600 1,000 251 153 -768
2022-10-03 05:35:29 GMT 50.062454 8.659756 1,025 251 153 -768
2022-10-03 05:35:27 GMT 50.062927 8.661755 1,050 250 153 -832
2022-10-03 05:35:25 GMT 50.063347 8.663536 1,075 250 152 -832
2022-10-03 05:35:24 GMT 50.064102 8.666550 1,125 250 152 -832
2022-10-03 05:35:22 GMT 50.064102 8.666550 1,150 250 153 -832
2022-10-03 05:35:20 GMT 50.064465 8.668139 1,150 250 153 -832
2022-10-03 05:35:19 GMT 50.064743 8.669225 1,175 250 153 -832
2022-10-03 05:35:17 GMT 50.065395 8.671850 1,200 251 153 -768
2022-10-03 05:35:15 GMT 50.065842 8.673778 1,200 251 153 -768
2022-10-03 05:35:13 GMT 50.066208 8.675296 1,225 251 153 -832
2022-10-03 05:35:12 GMT 50.066391 8.676236 1,250 251 153 -768
2022-10-03 05:35:11 GMT 50.066650 8.677343 1,275 251 153 -768
2022-10-03 05:35:09 GMT 50.067165 8.679496 1,300 250 152 -832
2022-10-03 05:35:08 GMT 50.067444 8.680645 1,300 250 152 -832
2022-10-03 05:35:05 GMT 50.068142 8.683727 1,350 249 153 -832
2022-10-03 05:35:03 GMT 50.068726 8.686138 1,375 250 152 -768
2022-10-03 05:35:01 GMT 50.069229 8.688089 1,400 250 153 -832
2022-10-03 05:35:00 GMT 50.069458 8.689101 1,425 250 153 -832
2022-10-03 05:34:59 GMT 50.069725 8.690111 1,425 250 154 -832
2022-10-03 05:34:58 GMT 50.070282 8.692426 1,450 250 154 -832
2022-10-03 05:34:56 GMT 50.070515 8.693452 1,475 250 155 -896
2022-10-03 05:34:54 GMT 50.070984 8.695530 1,500 250 155 -896
2022-10-03 05:34:53 GMT 50.071541 8.697906 1,525 250 156 -896
2022-10-03 05:34:50 GMT 50.072285 8.700949 1,575 250 156 -896
2022-10-03 05:34:48 GMT 50.072525 8.701967 1,600 250 156 -896
2022-10-03 05:34:47 GMT 50.072754 8.703051 1,600 250 156 -896
2022-10-03 05:34:45 GMT 50.073261 8.705180 1,650 250 156 -896
2022-10-03 05:34:44 GMT 50.073532 8.706159 1,650 250 157 -832
2022-10-03 05:34:43 GMT 50.074036 8.708400 1,675 250 157 -896
2022-10-03 05:34:41 GMT 50.074196 8.708966 1,700 250 158 -896
2022-10-03 05:34:39 GMT 50.074753 8.711267 1,725 250 159 -896
2022-10-03 05:34:38 GMT 50.074986 8.712307 1,725 250 159 -896
2022-10-03 05:34:37 GMT 50.075272 8.713459 1,750 250 159 -896
2022-10-03 05:34:35 GMT 50.075684 8.715266 1,775 250 160 -832
2022-10-03 05:34:34 GMT 50.075962 8.716389 1,800 250 160 0
2022-10-03 05:34:33 GMT 50.076473 8.718691 1,825 250 160 -896
2022-10-03 05:34:31 GMT 50.076756 8.719730 1,850 250 160 -960
2022-10-03 05:34:30 GMT 50.077011 8.720904 1,875 250 160 -960
2022-10-03 05:34:28 GMT 50.077358 8.722476 1,875 250 160 -960
2022-10-03 05:34:27 GMT 50.077641 8.723664 1,900 250 160 -896
2022-10-03 05:34:26 GMT 50.078613 8.727770 1,925 250 160 -896
2022-10-03 05:34:24 GMT 50.078613 8.727770 1,950 250 160 -896
2022-10-03 05:34:22 GMT 50.079117 8.729866 1,975 250 160 -832
2022-10-03 05:34:19 GMT 50.079758 8.732613 2,025 250 160 -832
2022-10-03 05:34:18 GMT 50.080154 8.734205 2,025 250 160 -896
2022-10-03 05:34:17 GMT 50.080902 8.737383 2,050 250 161 -896
2022-10-03 05:34:15 GMT 50.080902 8.737383 2,100 250 161 -832
2022-10-03 05:34:13 GMT 50.081455 8.739550 2,100 250 161 -832
2022-10-03 05:34:11 GMT 50.081818 8.741286 2,125 250 160 -832
2022-10-03 05:34:10 GMT 50.082184 8.742804 2,150 251 161 -832
2022-10-03 05:34:09 GMT 50.082436 8.743781 2,150 251 161 -896
2022-10-03 05:34:08 GMT 50.083225 8.747196 2,200 251 161 -896
2022-10-03 05:34:06 GMT 50.083225 8.747196 2,200 250 160 -896
2022-10-03 05:34:04 GMT 50.083740 8.749454 2,225 250 160 -896
2022-10-03 05:34:02 GMT 50.084244 8.751622 2,275 250 161 -896
2022-10-03 05:34:01 GMT 50.084473 8.752562 2,300 250 160 -832
2022-10-03 05:33:59 GMT 50.084885 8.754297 2,300 250 160 -832
2022-10-03 05:33:58 GMT 50.085274 8.755881 2,325 250 161 -896
2022-10-03 05:33:57 GMT 50.085506 8.756846 2,325 250 161 -960
2022-10-03 05:33:55 GMT 50.086578 8.761235 2,400 250 162 -1024
2022-10-03 05:33:53 GMT 50.086578 8.761235 2,400 250 161 -896
2022-10-03 05:33:52 GMT 50.086807 8.762247 2,425 251 161 -960
2022-10-03 05:33:51 GMT 50.087322 8.764417 2,450 251 162 -960
2022-10-03 05:33:48 GMT 50.087879 8.766719 2,500 251 162 -896
2022-10-03 05:33:45 GMT 50.088684 8.770198 2,525 251 162 -896
2022-10-03 05:33:44 GMT 50.088913 8.771282 2,550 251 162 -896
2022-10-03 05:33:42 GMT 50.089371 8.773251 2,575 250 162 -896
2022-10-03 05:33:40 GMT 50.089882 8.775552 2,600 250 163 -832
2022-10-03 05:33:39 GMT 50.090607 8.778438 2,625 250 164 -896
2022-10-03 05:33:37 GMT 50.090607 8.778438 2,650 250 164 -896
2022-10-03 05:33:36 GMT 50.090858 8.779487 2,675 250 165 -832
2022-10-03 05:33:33 GMT 50.091660 8.782847 2,700 250 166 -896
2022-10-03 05:33:32 GMT 50.091930 8.784015 2,725 250 166 -896
2022-10-03 05:33:31 GMT 50.092346 8.785810 2,725 251 167 -832
2022-10-03 05:33:30 GMT 50.092861 8.787949 2,775 250 168 -832
2022-10-03 05:33:28 GMT 50.093094 8.788988 2,775 250 168 -832
2022-10-03 05:33:27 GMT 50.093418 8.790250 2,800 250 169 -768
2022-10-03 05:33:25 GMT 50.093857 8.792243 2,825 251 170 -704
2022-10-03 05:33:24 GMT 50.094131 8.793399 2,825 250 170 -640
2022-10-03 05:33:22 GMT 50.094589 8.795351 2,850 250 171 -768
2022-10-03 05:33:20 GMT 50.095276 8.798170 2,850 250 171 -768
2022-10-03 05:33:19 GMT 50.095551 8.799326 2,900 250 172 -768
2022-10-03 05:33:18 GMT 50.095699 8.799900 2,900 250 172 -768
2022-10-03 05:33:17 GMT 50.096649 8.804024 2,925 250 172 -768
2022-10-03 05:33:15 GMT 50.096649 8.804024 2,975 250 172 -896
2022-10-03 05:33:13 GMT 50.097378 8.807101 2,975 250 173 -960
2022-10-03 05:33:11 GMT 50.097656 8.808361 3,000 250 173 -960
2022-10-03 05:33:10 GMT 50.097931 8.809517 3,000 250 173 -960
2022-10-03 05:33:08 GMT 50.098480 8.811830 3,050 250 174 -960
2022-10-03 05:33:07 GMT 50.098728 8.812817 3,075 250 174 -1024
2022-10-03 05:33:05 GMT 50.099304 8.815227 3,075 250 174 -1088
2022-10-03 05:33:04 GMT 50.099705 8.816974 3,125 251 175 -1152
2022-10-03 05:33:03 GMT 50.099983 8.818161 3,125 250 175 -1152
2022-10-03 05:33:02 GMT 50.100262 8.819349 3,150 250 175 -1088
2022-10-03 05:33:01 GMT 50.100731 8.821353 3,175 250 175 -1088
2022-10-03 05:32:59 GMT 50.101055 8.822541 3,200 250 175 -1152
2022-10-03 05:32:58 GMT 50.101318 8.823684 3,225 250 175 -1216
2022-10-03 05:32:57 GMT 50.101612 8.824917 3,250 250 176 -1280
2022-10-03 05:32:55 GMT 50.102280 8.827659 3,300 250 177 -1280
2022-10-03 05:32:54 GMT 50.102543 8.828851 3,325 250 177 -1280
2022-10-03 05:32:53 GMT 50.103104 8.831129 3,350 250 177 -1152
2022-10-03 05:32:51 GMT 50.103382 8.832265 3,375 250 178 -1088
2022-10-03 05:32:50 GMT 50.103706 8.833602 3,400 250 179 -1088
2022-10-03 05:32:48 GMT 50.104313 8.836126 3,425 250 179 -1152
2022-10-03 05:32:47 GMT 50.104568 8.837272 3,450 251 179 -1152
2022-10-03 05:32:46 GMT 50.104874 8.838501 3,475 251 179 -1024
2022-10-03 05:32:45 GMT 50.105385 8.840876 3,500 251 180 -832
2022-10-03 05:32:43 GMT 50.105621 8.841898 3,525 251 180 -768
2022-10-03 05:32:42 GMT 50.105942 8.843178 3,525 251 181 -704
2022-10-03 05:32:40 GMT 50.106457 8.845405 3,550 251 181 -576
2022-10-03 05:32:39 GMT 50.106720 8.846668 3,550 251 182 -512
2022-10-03 05:32:38 GMT 50.107014 8.847928 3,575 250 183 -576
2022-10-03 05:32:36 GMT 50.107635 8.850499 3,575 250 183 -576
2022-10-03 05:32:35 GMT 50.107910 8.851583 3,600 250 182 -576
2022-10-03 05:32:34 GMT 50.108177 8.852902 3,600 250 182 -512
2022-10-03 05:32:33 GMT 50.108829 8.855500 3,625 250 181 -448
2022-10-03 05:32:30 GMT 50.109295 8.857430 3,625 250 181 -256
2022-10-03 05:32:27 GMT 50.110245 8.861413 3,650 250 180 -128
2022-10-03 05:32:26 GMT 50.110840 8.864015 3,650 250 180 -128
2022-10-03 05:32:24 GMT 50.111115 8.865244 3,650 250 180 -64
2022-10-03 05:32:22 GMT 50.111713 8.867748 3,650 251 181 -64
2022-10-03 05:32:21 GMT 50.111984 8.868858 3,650 251 181 -64
2022-10-03 05:32:20 GMT 50.112305 8.870231 3,650 251 181 0
2022-10-03 05:32:18 GMT 50.112881 8.872870 3,650 251 181 0
2022-10-03 05:32:17 GMT 50.113018 8.873464 3,650 251 181 0
2022-10-03 05:32:16 GMT 50.113907 8.877315 3,650 251 180 64
2022-10-03 05:32:14 GMT 50.113907 8.877315 3,650 251 180 64
2022-10-03 05:32:13 GMT 50.114319 8.879194 3,650 251 180 64
2022-10-03 05:32:11 GMT 50.114777 8.881001 3,650 251 180 64
2022-10-03 05:32:10 GMT 50.115005 8.882157 3,650 251 180 64
2022-10-03 05:32:08 GMT 50.115719 8.885119 3,650 250 180 64
2022-10-03 05:32:07 GMT 50.115856 8.885861 3,650 250 181 64
2022-10-03 05:32:05 GMT 50.116333 8.887723 3,650 250 181 128
2022-10-03 05:32:04 GMT 50.117302 8.891800 3,625 250 182 64
2022-10-03 05:32:02 GMT 50.117302 8.891800 3,625 250 182 64
2022-10-03 05:32:01 GMT 50.117569 8.892999 3,625 250 182 0
2022-10-03 05:31:59 GMT 50.118187 8.895511 3,625 250 182 -64
2022-10-03 05:31:58 GMT 50.118511 8.896847 3,650 250 182 -64
2022-10-03 05:31:57 GMT 50.118759 8.898058 3,650 250 182 0
2022-10-03 05:31:55 GMT 50.119396 8.900559 3,650 249 183 0
2022-10-03 05:31:53 GMT 50.119858 8.902467 3,625 249 183 64
2022-10-03 05:31:52 GMT 50.120270 8.904202 3,625 249 184 0
2022-10-03 05:31:50 GMT 50.120956 8.906804 3,625 249 185 -64
2022-10-03 05:31:48 GMT 50.122330 8.912213 3,625 249 187 -64
2022-10-03 05:31:46 GMT 50.122330 8.912213 3,650 249 188 -64
2022-10-03 05:31:44 GMT 50.122925 8.914610 3,650 249 189 -64
2022-10-03 05:31:42 GMT 50.123402 8.916445 3,650 250 190 -128
2022-10-03 05:31:40 GMT 50.124069 8.919236 3,650 250 192 -128
2022-10-03 05:31:39 GMT 50.124378 8.920602 3,650 251 193 -128
2022-10-03 05:31:37 GMT 50.124985 8.923284 3,650 250 194 -128
2022-10-03 05:31:35 GMT 50.125626 8.925886 3,650 251 196 -128
2022-10-03 05:31:34 GMT 50.125866 8.926985 3,650 251 197 -128
2022-10-03 05:31:33 GMT 50.126312 8.928777 3,650 251 198 -192
2022-10-03 05:31:31 GMT 50.126846 8.931142 3,675 251 200 -192
2022-10-03 05:31:28 GMT 50.127640 8.934559 3,675 252 201 -128
2022-10-03 05:31:27 GMT 50.127960 8.936042 3,675 252 203 -64
2022-10-03 05:31:26 GMT 50.128235 8.937450 3,675 253 203 0
2022-10-03 05:31:25 GMT 50.128693 8.939546 3,675 253 205 64
2022-10-03 05:31:23 GMT 50.129105 8.941642 3,650 254 209 128
2022-10-03 05:31:22 GMT 50.129593 8.943985 3,650 254 209 128
2022-10-03 05:31:20 GMT 50.130066 8.946630 3,650 255 209 0
2022-10-03 05:31:19 GMT 50.130798 8.950677 3,650 256 211 -64
2022-10-03 05:31:17 GMT 50.130798 8.950677 3,650 256 211 -128
2022-10-03 05:31:16 GMT 50.131210 8.952918 3,675 256 212 -128
2022-10-03 05:31:15 GMT 50.131592 8.955342 3,675 257 213 -192
2022-10-03 05:31:13 GMT 50.131805 8.956749 3,675 257 214 -128
2022-10-03 05:31:12 GMT 50.132080 8.958339 3,675 258 214 -64
2022-10-03 05:31:11 GMT 50.132523 8.961281 3,675 258 215 128
2022-10-03 05:31:09 GMT 50.132755 8.962914 3,675 258 215 128
2022-10-03 05:31:08 GMT 50.132942 8.964473 3,675 258 215 128
2022-10-03 05:31:07 GMT 50.133362 8.967446 3,675 258 216 128
2022-10-03 05:31:05 GMT 50.133595 8.969149 3,650 258 216 64
2022-10-03 05:31:03 GMT 50.134048 8.972288 3,650 256 216 64
2022-10-03 05:31:01 GMT 50.134384 8.974717 3,650 250 216 128
2022-10-03 05:31:00 GMT 50.134666 8.976201 3,650 247 216 128
2022-10-03 05:30:58 GMT 50.135410 8.979616 3,650 245 216 64
2022-10-03 05:30:56 GMT 50.136475 8.983130 3,650 239 218 0
2022-10-03 05:30:54 GMT 50.137299 8.985371 3,650 234 220 -64
2022-10-03 05:30:53 GMT 50.137505 8.986074 3,650 231 220 -64
2022-10-03 05:30:52 GMT 50.139587 8.990213 3,650 228 221 -64
2022-10-03 05:30:50 GMT 50.140594 8.991804 3,650 216 226 -64
2022-10-03 05:30:49 GMT 50.140594 8.991804 3,650 216 226 -64
2022-10-03 05:30:48 GMT 50.141323 8.992829 3,650 216 226 -64
2022-10-03 05:30:46 GMT 50.142471 8.994478 3,675 213 227 -64
2022-10-03 05:30:45 GMT 50.143250 8.995273 3,675 211 228 -64
2022-10-03 05:30:42 GMT 50.145885 8.997951 3,675 209 229 -64
2022-10-03 05:30:41 GMT 50.147415 8.999248 3,650 204 231 128
2022-10-03 05:30:40 GMT 50.149422 9.000624 3,650 202 232 192
2022-10-03 05:30:37 GMT 50.151352 9.001850 3,650 201 233 0
2022-10-03 05:30:35 GMT 50.153240 9.002925 3,650 201 233 64
2022-10-03 05:30:34 GMT 50.154263 9.003519 3,650 200 234 0
2022-10-03 05:30:33 GMT 50.155148 9.004038 3,650 200 234 0
2022-10-03 05:30:32 GMT 50.157669 9.005464 3,650 200 234 0
2022-10-03 05:30:29 GMT 50.159245 9.006339 3,650 200 234 0
2022-10-03 05:30:27 GMT 50.161194 9.007488 3,650 200 234 0
2022-10-03 05:30:26 GMT 50.162270 9.008047 3,650 200 235 0
2022-10-03 05:30:25 GMT 50.163345 9.008645 3,650 200 235 0
2022-10-03 05:30:23 GMT 50.166553 9.010496 3,650 200 235 0
2022-10-03 05:30:20 GMT 50.168091 9.011387 3,650 201 235 64
2022-10-03 05:30:18 GMT 50.170303 9.012620 3,650 201 235 64
2022-10-03 05:30:17 GMT 50.171402 9.013270 3,650 201 235 64
2022-10-03 05:30:16 GMT 50.172546 9.013849 3,650 201 234 64
2022-10-03 05:30:15 GMT 50.174606 9.015025 3,650 201 234 0
2022-10-03 05:30:13 GMT 50.175537 9.015618 3,650 201 234 0
2022-10-03 05:30:12 GMT 50.176620 9.016161 3,650 201 234 0
2022-10-03 05:30:11 GMT 50.178799 9.017474 3,650 201 234 0
2022-10-03 05:30:08 GMT 50.181126 9.018810 3,650 201 234 0
2022-10-03 05:30:06 GMT 50.184036 9.020498 3,650 201 234 64
2022-10-03 05:30:04 GMT 50.185081 9.021112 3,650 201 234 0
2022-10-03 05:30:03 GMT 50.187607 9.022522 3,650 201 235 0
2022-10-03 05:30:01 GMT 50.187607 9.022522 3,650 201 235 0
2022-10-03 05:30:00 GMT 50.188522 9.023028 3,650 201 235 -64
2022-10-03 05:29:58 GMT 50.190674 9.024257 3,650 201 235 0
2022-10-03 05:29:56 GMT 50.193741 9.026064 3,650 201 235 -64
2022-10-03 05:29:54 GMT 50.194748 9.026642 3,650 201 235 -64
2022-10-03 05:29:53 GMT 50.195694 9.027199 3,650 201 235 0
2022-10-03 05:29:52 GMT 50.197742 9.028386 3,650 201 235 0
2022-10-03 05:29:50 GMT 50.198822 9.029027 3,650 201 235 0
2022-10-03 05:29:49 GMT 50.199886 9.029648 3,650 201 235 0
2022-10-03 05:29:47 GMT 50.201981 9.030834 3,650 201 235 0
2022-10-03 05:29:46 GMT 50.202957 9.031430 3,650 201 235 64
2022-10-03 05:29:45 GMT 50.204041 9.031990 3,650 201 235 0
2022-10-03 05:29:44 GMT 50.204956 9.032569 3,650 201 235 0
2022-10-03 05:29:42 GMT 50.207108 9.033797 3,650 201 235 0
2022-10-03 05:29:41 GMT 50.208496 9.034548 3,650 201 235 0
2022-10-03 05:29:39 GMT 50.210495 9.035677 3,650 201 235 0
2022-10-03 05:29:38 GMT 50.211571 9.036255 3,650 201 235 0
2022-10-03 05:29:37 GMT 50.212509 9.036833 3,650 201 235 0
2022-10-03 05:29:34 GMT 50.215527 9.038556 3,650 201 234 0
2022-10-03 05:29:33 GMT 50.216644 9.039224 3,650 201 234 0
2022-10-03 05:29:32 GMT 50.218735 9.040375 3,650 201 234 0
2022-10-03 05:29:30 GMT 50.219810 9.041006 3,650 201 234 0
2022-10-03 05:29:29 GMT 50.220886 9.041603 3,650 201 234 0
2022-10-03 05:29:28 GMT 50.223766 9.043307 3,650 201 234 0
2022-10-03 05:29:26 GMT 50.223766 9.043307 3,650 201 234 64
2022-10-03 05:29:25 GMT 50.224731 9.043844 3,650 201 234 64
2022-10-03 05:29:24 GMT 50.226933 9.045163 3,650 201 235 0
2022-10-03 05:29:22 GMT 50.228027 9.045723 3,650 201 235 0
2022-10-03 05:29:21 GMT 50.228622 9.046085 3,650 201 235 0
2022-10-03 05:29:19 GMT 50.231121 9.047538 3,650 201 235 0
2022-10-03 05:29:17 GMT 50.232788 9.048542 3,650 201 235 0
2022-10-03 05:29:14 GMT 50.235825 9.050210 3,650 200 235 0
2022-10-03 05:29:13 GMT 50.236942 9.050879 3,650 200 235 0
2022-10-03 05:29:11 GMT 50.239269 9.052215 3,650 201 234 0
2022-10-03 05:29:09 GMT 50.241165 9.053240 3,650 201 234 0
2022-10-03 05:29:08 GMT 50.242153 9.053848 3,650 201 234 0
2022-10-03 05:29:07 GMT 50.243271 9.054442 3,650 201 234 0
2022-10-03 05:29:05 GMT 50.244808 9.055332 3,650 201 234 0
2022-10-03 05:29:03 GMT 50.246475 9.056276 3,650 201 234 0
2022-10-03 05:29:02 GMT 50.247482 9.056854 3,650 201 234 0
2022-10-03 05:29:01 GMT 50.248486 9.057411 3,650 201 235 0
2022-10-03 05:29:00 GMT 50.250549 9.058589 3,650 201 235 -64
2022-10-03 05:28:58 GMT 50.251511 9.059193 3,650 201 235 -64
2022-10-03 05:28:56 GMT 50.253746 9.060454 3,650 201 235 0
2022-10-03 05:28:55 GMT 50.254768 9.061048 3,650 201 235 0
2022-10-03 05:28:54 GMT 50.255859 9.061625 3,650 200 235 0
2022-10-03 05:28:52 GMT 50.257980 9.062830 3,650 200 235 0
2022-10-03 05:28:50 GMT 50.260311 9.064166 3,650 200 235 0
2022-10-03 05:28:49 GMT 50.261398 9.064805 3,650 200 235 0
2022-10-03 05:28:47 GMT 50.264965 9.066764 3,650 200 236 0
2022-10-03 05:28:44 GMT 50.266663 9.067696 3,650 200 236 64
2022-10-03 05:28:42 GMT 50.268173 9.068563 3,650 200 236 64
2022-10-03 05:28:41 GMT 50.269226 9.069142 3,650 200 236 64
2022-10-03 05:28:40 GMT 50.270233 9.069720 3,650 200 236 64
2022-10-03 05:28:38 GMT 50.272110 9.070732 3,650 200 235 0
2022-10-03 05:28:37 GMT 50.273064 9.071292 3,650 200 235 -64
2022-10-03 05:28:36 GMT 50.274227 9.071960 3,650 200 235 0
2022-10-03 05:28:35 GMT 50.275177 9.072466 3,650 200 235 0
2022-10-03 05:28:33 GMT 50.277237 9.073623 3,650 200 235 0
2022-10-03 05:28:32 GMT 50.278381 9.074273 3,650 200 235 0
2022-10-03 05:28:31 GMT 50.279442 9.074855 3,650 200 235 0
2022-10-03 05:28:29 GMT 50.281448 9.076008 3,650 200 235 0
2022-10-03 05:28:28 GMT 50.283417 9.077092 3,650 200 235 -64
2022-10-03 05:28:26 GMT 50.284378 9.077676 3,650 200 236 -64
2022-10-03 05:28:25 GMT 50.285400 9.078196 3,650 200 236 -64
2022-10-03 05:28:24 GMT 50.286713 9.078971 3,650 200 236 -64
2022-10-03 05:28:21 GMT 50.289917 9.080720 3,650 200 236 64
2022-10-03 05:28:20 GMT 50.290989 9.081314 3,650 200 236 64
2022-10-03 05:28:18 GMT 50.292942 9.082427 3,650 200 236 64
2022-10-03 05:28:17 GMT 50.294060 9.083021 3,650 200 236 0
2022-10-03 05:28:16 GMT 50.295135 9.083597 3,650 200 236 0
2022-10-03 05:28:15 GMT 50.296249 9.084209 3,650 200 235 0
2022-10-03 05:28:13 GMT 50.298340 9.085404 3,650 200 235 0
2022-10-03 05:28:12 GMT 50.299416 9.085990 3,650 201 236 0
2022-10-03 05:28:10 GMT 50.301182 9.087030 3,650 201 236 64
2022-10-03 05:28:09 GMT 50.302231 9.087645 3,650 201 236 64
2022-10-03 05:28:07 GMT 50.304382 9.088874 3,650 202 236 64
2022-10-03 05:28:06 GMT 50.305435 9.089452 3,650 202 236 0
2022-10-03 05:28:04 GMT 50.307423 9.090593 3,650 204 234 0
2022-10-03 05:28:03 GMT 50.308537 9.091335 3,650 205 234 -64
2022-10-03 05:28:01 GMT 50.311798 9.093636 3,650 210 233 0
2022-10-03 05:27:59 GMT 50.312347 9.094005 3,650 212 233 0
2022-10-03 05:27:58 GMT 50.313705 9.095195 3,650 214 232 0
2022-10-03 05:27:57 GMT 50.314590 9.096086 3,650 219 232 0
2022-10-03 05:27:55 GMT 50.316330 9.097908 3,650 221 232 -64
2022-10-03 05:27:54 GMT 50.317200 9.098920 3,650 223 232 -64
2022-10-03 05:27:53 GMT 50.318024 9.100004 3,650 225 231 -64
2022-10-03 05:27:51 GMT 50.319523 9.102173 3,650 229 230 -64
2022-10-03 05:27:50 GMT 50.320312 9.103402 3,650 231 230 -64
2022-10-03 05:27:48 GMT 50.321712 9.105959 3,650 233 229 -64
2022-10-03 05:27:46 GMT 50.322968 9.108533 3,650 240 229 64
2022-10-03 05:27:45 GMT 50.323528 9.109819 3,650 242 227 64
2022-10-03 05:27:43 GMT 50.324551 9.112640 3,650 246 226 0
2022-10-03 05:27:42 GMT 50.325027 9.114171 3,650 248 225 0
2022-10-03 05:27:40 GMT 50.325851 9.117134 3,650 253 224 0
2022-10-03 05:27:39 GMT 50.326088 9.117910 3,650 255 223 0
2022-10-03 05:27:38 GMT 50.326553 9.120211 3,650 257 222 0
2022-10-03 05:27:37 GMT 50.327042 9.123206 3,650 259 222 0
2022-10-03 05:27:35 GMT 50.327225 9.124724 3,650 264 220 0
2022-10-03 05:27:34 GMT 50.327408 9.126458 3,650 268 218 0
2022-10-03 05:27:32 GMT 50.327591 9.129277 3,650 273 217 0
2022-10-03 05:27:30 GMT 50.327625 9.130901 3,650 273 217 0
2022-10-03 05:27:29 GMT 50.327625 9.132459 3,650 275 215 0
2022-10-03 05:27:28 GMT 50.327591 9.133903 3,650 277 215 0
2022-10-03 05:27:26 GMT 50.327316 9.137589 3,650 282 214 0
2022-10-03 05:27:25 GMT 50.327133 9.139107 3,650 284 212 0
2022-10-03 05:27:23 GMT 50.326492 9.143082 3,650 291 210 0
2022-10-03 05:27:21 GMT 50.325344 9.147529 3,650 298 208 -64
2022-10-03 05:27:19 GMT 50.325111 9.148345 3,650 300 208 -64
2022-10-03 05:27:18 GMT 50.324524 9.150021 3,650 303 208 -64
2022-10-03 05:27:16 GMT 50.323666 9.152279 3,650 307 206 0
2022-10-03 05:27:14 GMT 50.322968 9.153780 3,650 310 206 64
2022-10-03 05:27:12 GMT 50.321667 9.156288 3,650 314 206 64
2022-10-03 05:27:10 GMT 50.320404 9.158406 3,650 318 205 64
2022-10-03 05:27:09 GMT 50.319664 9.159554 3,650 319 206 64
2022-10-03 05:27:08 GMT 50.318871 9.160593 3,650 321 206 64
2022-10-03 05:27:06 GMT 50.317520 9.162449 3,650 321 206 64
2022-10-03 05:27:05 GMT 50.316742 9.163465 3,650 322 206 0
2022-10-03 05:27:04 GMT 50.315918 9.164477 3,650 322 207 0
2022-10-03 05:27:03 GMT 50.315231 9.165344 3,650 322 207 0
2022-10-03 05:27:02 GMT 50.314178 9.166645 3,650 322 207 -64
2022-10-03 05:27:01 GMT 50.312820 9.168388 3,650 322 207 -64
2022-10-03 05:26:59 GMT 50.312119 9.169320 3,650 322 208 -64
2022-10-03 05:26:58 GMT 50.311295 9.170331 3,650 322 208 -64
2022-10-03 05:26:57 GMT 50.309750 9.172248 3,650 322 208 -64
2022-10-03 05:26:55 GMT 50.308910 9.173287 3,650 322 209 0
2022-10-03 05:26:54 GMT 50.307449 9.175174 3,650 322 209 0
2022-10-03 05:26:52 GMT 50.306625 9.176186 3,650 322 209 0
2022-10-03 05:26:51 GMT 50.306168 9.176764 3,650 322 209 0
2022-10-03 05:26:50 GMT 50.304394 9.178929 3,650 322 209 64
2022-10-03 05:26:48 GMT 50.303513 9.180017 3,650 322 209 64
2022-10-03 05:26:47 GMT 50.302345 9.181527 3,650 322 209 0
2022-10-03 05:26:45 GMT 50.301601 9.182418 3,650 322 209 0
2022-10-03 05:26:43 GMT 50.299088 9.185535 3,650 322 209 0
2022-10-03 05:26:40 GMT 50.297504 9.187540 3,650 322 209 0
2022-10-03 05:26:39 GMT 50.296829 9.188329 3,650 322 209 0
2022-10-03 05:26:38 GMT 50.295227 9.190280 3,650 322 209 0
2022-10-03 05:26:36 GMT 50.294434 9.191325 3,650 322 209 0
2022-10-03 05:26:35 GMT 50.294014 9.191845 3,650 322 209 0
2022-10-03 05:26:33 GMT 50.292385 9.193849 3,650 322 209 0
2022-10-03 05:26:32 GMT 50.291359 9.195185 3,650 322 209 0
2022-10-03 05:26:31 GMT 50.290604 9.196063 3,650 322 209 0
2022-10-03 05:26:30 GMT 50.289963 9.196930 3,650 322 209 0
2022-10-03 05:26:28 GMT 50.288406 9.198809 3,650 322 209 64
2022-10-03 05:26:27 GMT 50.287682 9.199714 3,650 322 209 0
2022-10-03 05:26:26 GMT 50.286987 9.200616 3,650 322 209 0
2022-10-03 05:26:24 GMT 50.285355 9.202683 3,650 322 209 0
2022-10-03 05:26:23 GMT 50.284515 9.203722 3,650 322 209 0
2022-10-03 05:26:21 GMT 50.283073 9.205504 3,650 322 209 0
2022-10-03 05:26:19 GMT 50.281631 9.207285 3,650 322 209 0
2022-10-03 05:26:18 GMT 50.280167 9.209145 3,650 322 209 0
2022-10-03 05:26:15 GMT 50.278427 9.211313 3,650 322 210 0
2022-10-03 05:26:12 GMT 50.276043 9.214263 3,650 322 210 0
2022-10-03 05:26:11 GMT 50.275253 9.215228 3,650 322 210 0
2022-10-03 05:26:09 GMT 50.273804 9.217096 3,650 322 210 0
2022-10-03 05:26:08 GMT 50.272934 9.218108 3,650 322 210 0
2022-10-03 05:26:07 GMT 50.272202 9.219119 3,650 322 210 0
2022-10-03 05:26:05 GMT 50.270966 9.220637 3,650 322 211 0
2022-10-03 05:26:04 GMT 50.270233 9.221577 3,650 322 211 0
2022-10-03 05:26:03 GMT 50.267757 9.224656 3,650 322 211 0
2022-10-03 05:26:01 GMT 50.267757 9.224656 3,650 322 211 0
2022-10-03 05:25:59 GMT 50.266548 9.226214 3,650 322 211 0
2022-10-03 05:25:58 GMT 50.265793 9.227070 3,650 322 211 0
2022-10-03 05:25:55 GMT 50.263474 9.230000 3,650 322 211 0
2022-10-03 05:25:54 GMT 50.262638 9.231040 3,650 322 211 0
2022-10-03 05:25:51 GMT 50.260574 9.233647 3,650 322 210 0
2022-10-03 05:25:50 GMT 50.259750 9.234677 3,650 322 210 0
2022-10-03 05:25:48 GMT 50.258217 9.236607 3,650 322 210 0
2022-10-03 05:25:47 GMT 50.257469 9.237498 3,650 322 210 0
2022-10-03 05:25:45 GMT 50.254944 9.240731 3,650 321 211 0
2022-10-03 05:25:43 GMT 50.254211 9.241655 3,650 322 211 0
2022-10-03 05:25:42 GMT 50.253342 9.242754 3,650 322 211 0
2022-10-03 05:25:41 GMT 50.252163 9.244253 3,650 322 211 0
2022-10-03 05:25:39 GMT 50.251144 9.245501 3,650 322 211 0
2022-10-03 05:25:37 GMT 50.249588 9.247453 3,650 322 211 0
2022-10-03 05:25:35 GMT 50.248020 9.249375 3,650 322 211 0
2022-10-03 05:25:34 GMT 50.247276 9.250340 3,650 322 211 0
2022-10-03 05:25:33 GMT 50.245697 9.252295 3,650 322 211 -64
2022-10-03 05:25:31 GMT 50.244900 9.253309 3,650 321 212 0
2022-10-03 05:25:30 GMT 50.244186 9.254247 3,650 321 212 0
2022-10-03 05:25:29 GMT 50.242676 9.256126 3,650 321 212 0
2022-10-03 05:25:26 GMT 50.240337 9.259099 3,650 321 212 64
2022-10-03 05:25:24 GMT 50.239639 9.259990 3,650 321 211 64
2022-10-03 05:25:22 GMT 50.237358 9.262885 3,650 321 211 0
2022-10-03 05:25:20 GMT 50.236710 9.263776 3,650 321 211 0
2022-10-03 05:25:19 GMT 50.235916 9.264741 3,650 321 211 0
2022-10-03 05:25:18 GMT 50.234436 9.266606 3,650 321 211 0
2022-10-03 05:25:16 GMT 50.233612 9.267691 3,650 321 212 64
2022-10-03 05:25:15 GMT 50.232796 9.268675 3,650 321 212 64
2022-10-03 05:25:14 GMT 50.232010 9.269714 3,650 321 212 0
2022-10-03 05:25:12 GMT 50.230469 9.271644 3,650 321 212 0
2022-10-03 05:25:10 GMT 50.228935 9.273574 3,650 321 211 -128
2022-10-03 05:25:08 GMT 50.227585 9.275282 3,650 321 211 -128
2022-10-03 05:25:07 GMT 50.226608 9.276509 3,650 321 211 -64
2022-10-03 05:25:06 GMT 50.225117 9.278399 3,650 321 211 -64
2022-10-03 05:25:04 GMT 50.224323 9.279439 3,650 321 211 0
2022-10-03 05:25:03 GMT 50.223587 9.280412 3,650 321 211 64
2022-10-03 05:25:02 GMT 50.221985 9.282435 3,650 321 211 64
2022-10-03 05:25:00 GMT 50.221577 9.282928 3,650 321 211 64
2022-10-03 05:24:59 GMT 50.220474 9.284315 3,650 322 211 64
2022-10-03 05:24:58 GMT 50.218506 9.286844 3,650 322 211 64
2022-10-03 05:24:56 GMT 50.218506 9.286844 3,650 322 211 64
2022-10-03 05:24:55 GMT 50.217484 9.288124 3,650 322 211 0
2022-10-03 05:24:53 GMT 50.215988 9.289952 3,650 322 211 0
2022-10-03 05:24:52 GMT 50.215302 9.290820 3,650 322 211 64
2022-10-03 05:24:51 GMT 50.214615 9.291687 3,650 322 211 0
2022-10-03 05:24:49 GMT 50.212872 9.293840 3,650 322 211 0
2022-10-03 05:24:48 GMT 50.212219 9.294656 3,650 322 211 0
2022-10-03 05:24:47 GMT 50.211384 9.295696 3,650 322 211 0
2022-10-03 05:24:46 GMT 50.209854 9.297542 3,650 322 211 0
2022-10-03 05:24:43 GMT 50.208252 9.299565 3,650 322 211 0
2022-10-03 05:24:42 GMT 50.206776 9.301411 3,650 322 210 0
2022-10-03 05:24:40 GMT 50.205917 9.302529 3,650 322 210 0
2022-10-03 05:24:39 GMT 50.205139 9.303468 3,650 322 210 0
2022-10-03 05:24:36 GMT 50.203171 9.305926 3,650 322 209 64
2022-10-03 05:24:35 GMT 50.202438 9.306865 3,650 322 209 64
2022-10-03 05:24:33 GMT 50.201000 9.308612 3,650 322 209 64
2022-10-03 05:24:32 GMT 50.200256 9.309577 3,650 322 209 64
2022-10-03 05:24:31 GMT 50.198044 9.312359 3,650 322 209 64
2022-10-03 05:24:29 GMT 50.198044 9.312359 3,650 322 209 64
2022-10-03 05:24:28 GMT 50.197266 9.313298 3,650 322 210 0
2022-10-03 05:24:26 GMT 50.195648 9.315293 3,650 322 210 -64
2022-10-03 05:24:25 GMT 50.194813 9.316332 3,650 322 209 -64
2022-10-03 05:24:23 GMT 50.193367 9.318114 3,650 322 209 -64
2022-10-03 05:24:22 GMT 50.192669 9.319004 3,650 322 210 0
2022-10-03 05:24:21 GMT 50.191925 9.319969 3,650 322 210 0
2022-10-03 05:24:20 GMT 50.191177 9.320815 3,650 322 210 0
2022-10-03 05:24:18 GMT 50.189346 9.323128 3,650 322 210 0
2022-10-03 05:24:17 GMT 50.188522 9.324140 3,650 322 210 0
2022-10-03 05:24:15 GMT 50.185410 9.328043 3,650 322 210 -64
2022-10-03 05:24:13 GMT 50.185410 9.328043 3,650 322 210 0
2022-10-03 05:24:12 GMT 50.185043 9.328549 3,650 322 210 -64
2022-10-03 05:24:11 GMT 50.183266 9.330733 3,650 322 209 0
2022-10-03 05:24:08 GMT 50.182159 9.332163 3,650 322 209 0
2022-10-03 05:24:06 GMT 50.180382 9.334370 3,650 322 209 0
2022-10-03 05:24:05 GMT 50.179596 9.335343 3,650 322 209 0
2022-10-03 05:24:03 GMT 50.178425 9.336820 3,650 324 208 0
2022-10-03 05:24:02 GMT 50.177307 9.338090 3,650 325 209 -64
2022-10-03 05:24:01 GMT 50.176529 9.339029 3,650 327 208 -128
2022-10-03 05:24:00 GMT 50.175247 9.340475 3,650 329 207 -128
2022-10-03 05:23:58 GMT 50.174419 9.341348 3,650 337 207 64
2022-10-03 05:23:56 GMT 50.171814 9.343649 3,650 337 207 128
2022-10-03 05:23:54 GMT 50.170807 9.344450 3,650 338 208 128
2022-10-03 05:23:53 GMT 50.169937 9.345029 3,650 338 208 128
2022-10-03 05:23:50 GMT 50.167511 9.346474 3,650 342 209 64
2022-10-03 05:23:49 GMT 50.166508 9.346990 3,650 343 209 -64
2022-10-03 05:23:46 GMT 50.164261 9.348064 3,650 343 210 -64
2022-10-03 05:23:45 GMT 50.162735 9.348846 3,650 343 211 -64
2022-10-03 05:23:44 GMT 50.161713 9.349291 3,650 343 211 -64
2022-10-03 05:23:43 GMT 50.160686 9.349811 3,650 343 211 0
2022-10-03 05:23:41 GMT 50.158825 9.350701 3,650 343 211 0
2022-10-03 05:23:40 GMT 50.157848 9.351147 3,650 343 211 0
2022-10-03 05:23:39 GMT 50.156918 9.351592 3,650 343 211 0
2022-10-03 05:23:38 GMT 50.156067 9.351967 3,650 344 211 64
2022-10-03 05:23:36 GMT 50.154190 9.352907 3,650 344 210 64
2022-10-03 05:23:35 GMT 50.153366 9.353268 3,650 344 210 64
2022-10-03 05:23:34 GMT 50.152355 9.353745 3,650 344 210 64
2022-10-03 05:23:33 GMT 50.150391 9.354714 3,650 344 210 64
2022-10-03 05:23:31 GMT 50.149467 9.355081 3,650 344 210 64
2022-10-03 05:23:29 GMT 50.147690 9.355943 3,650 344 209 0
2022-10-03 05:23:28 GMT 50.146816 9.356343 3,650 344 209 0
2022-10-03 05:23:27 GMT 50.145885 9.356788 3,650 344 209 0
2022-10-03 05:23:26 GMT 50.144955 9.357234 3,650 344 210 0
2022-10-03 05:23:23 GMT 50.142105 9.358617 3,650 344 210 0
2022-10-03 05:23:22 GMT 50.141136 9.359015 3,650 343 210 -64
2022-10-03 05:23:21 GMT 50.138855 9.360135 3,650 343 210 -64
2022-10-03 05:23:19 GMT 50.138855 9.360135 3,650 343 210 -128
2022-10-03 05:23:17 GMT 50.136993 9.361020 3,650 343 210 0
2022-10-03 05:23:16 GMT 50.136063 9.361465 3,650 343 210 -64
2022-10-03 05:23:14 GMT 50.133827 9.362579 3,650 343 211 0
2022-10-03 05:23:13 GMT 50.132896 9.363024 3,650 343 211 0
2022-10-03 05:23:11 GMT 50.130989 9.363915 3,650 343 211 64
2022-10-03 05:23:10 GMT 50.129745 9.364471 3,650 343 211 0
2022-10-03 05:23:08 GMT 50.128235 9.365194 3,650 344 212 0
2022-10-03 05:23:06 GMT 50.126266 9.366134 3,650 343 212 0
2022-10-03 05:23:04 GMT 50.124390 9.367073 3,650 343 212 0
2022-10-03 05:23:02 GMT 50.121597 9.368447 3,650 343 212 0
2022-10-03 05:23:00 GMT 50.120773 9.368808 3,650 343 212 0
2022-10-03 05:22:59 GMT 50.117844 9.370254 3,650 343 212 0
2022-10-03 05:22:57 GMT 50.117844 9.370254 3,650 344 212 0
2022-10-03 05:22:55 GMT 50.114456 9.371844 3,650 344 211 64
2022-10-03 05:22:53 GMT 50.114456 9.371844 3,650 344 211 64
2022-10-03 05:22:51 GMT 50.112553 9.372748 3,650 345 211 64
2022-10-03 05:22:49 GMT 50.110611 9.373651 3,650 347 210 0
2022-10-03 05:22:48 GMT 50.109558 9.374084 3,650 348 210 0
2022-10-03 05:22:46 GMT 50.107803 9.374753 3,650 349 209 -64
2022-10-03 05:22:45 GMT 50.106903 9.375024 3,650 353 209 0
2022-10-03 05:22:43 GMT 50.103706 9.375866 3,650 359 208 64
2022-10-03 05:22:41 GMT 50.102554 9.375964 3,650 1 208 0
2022-10-03 05:22:40 GMT 50.102032 9.376089 3,650 10 210 -64
2022-10-03 05:22:38 GMT 50.099609 9.375940 3,650 10 210 -64
2022-10-03 05:22:37 GMT 50.096558 9.375313 3,650 13 211 0
2022-10-03 05:22:35 GMT 50.096558 9.375313 3,650 17 212 0
2022-10-03 05:22:34 GMT 50.095688 9.375024 3,650 17 212 0
2022-10-03 05:22:32 GMT 50.094257 9.374530 3,650 22 213 0
2022-10-03 05:22:30 GMT 50.092255 9.373362 3,650 27 214 0
2022-10-03 05:22:28 GMT 50.089050 9.370904 3,650 36 217 -64
2022-10-03 05:22:25 GMT 50.087509 9.369334 3,650 40 219 0
2022-10-03 05:22:23 GMT 50.085938 9.367579 3,650 42 220 0
2022-10-03 05:22:21 GMT 50.084763 9.366142 3,650 45 220 0
2022-10-03 05:22:18 GMT 50.081875 9.361317 3,650 55 223 64
2022-10-03 05:22:16 GMT 50.081223 9.360055 3,650 57 224 64
2022-10-03 05:22:15 GMT 50.080666 9.358718 3,650 59 225 64
2022-10-03 05:22:14 GMT 50.078896 9.354190 3,650 62 225 128
2022-10-03 05:22:12 GMT 50.078896 9.354190 3,650 63 225 64
2022-10-03 05:22:11 GMT 50.078430 9.352780 3,650 64 224 0
2022-10-03 05:22:09 GMT 50.077515 9.349943 3,650 65 225 -64
2022-10-03 05:22:08 GMT 50.077057 9.348353 3,650 65 225 -64
2022-10-03 05:22:07 GMT 50.076569 9.346693 3,650 65 225 -64
2022-10-03 05:22:06 GMT 50.076149 9.345357 3,650 65 225 64
2022-10-03 05:22:03 GMT 50.075077 9.341645 3,650 65 225 64
2022-10-03 05:22:02 GMT 50.074707 9.340309 3,650 65 225 64
2022-10-03 05:22:01 GMT 50.074100 9.338305 3,650 65 225 0
2022-10-03 05:22:00 GMT 50.073624 9.336717 3,650 65 225 0
2022-10-03 05:21:58 GMT 50.073029 9.334742 3,650 65 224 0
2022-10-03 05:21:57 GMT 50.072193 9.331772 3,650 65 224 0
2022-10-03 05:21:56 GMT 50.071747 9.330284 3,650 65 224 0
2022-10-03 05:21:54 GMT 50.070419 9.325875 3,650 65 224 64
2022-10-03 05:21:52 GMT 50.070419 9.325875 3,650 65 224 64
2022-10-03 05:21:49 GMT 50.069073 9.321231 3,650 65 224 0
2022-10-03 05:21:47 GMT 50.068405 9.318936 3,650 65 224 -64
2022-10-03 05:21:45 GMT 50.067211 9.314922 3,650 65 224 0
2022-10-03 05:21:43 GMT 50.066326 9.311804 3,650 65 224 -64
2022-10-03 05:21:41 GMT 50.065704 9.309684 3,650 65 224 0
2022-10-03 05:21:40 GMT 50.065247 9.308094 3,650 65 225 0
2022-10-03 05:21:38 GMT 50.064140 9.304306 3,650 65 224 0
2022-10-03 05:21:36 GMT 50.063507 9.302095 3,650 65 224 0
2022-10-03 05:21:35 GMT 50.063004 9.300433 3,650 65 224 0
2022-10-03 05:21:34 GMT 50.062138 9.297477 3,650 65 224 0
2022-10-03 05:21:32 GMT 50.061672 9.295844 3,650 65 224 0
2022-10-03 05:21:31 GMT 50.061298 9.294508 3,650 65 224 0
2022-10-03 05:21:30 GMT 50.060806 9.292988 3,650 65 225 0
2022-10-03 05:21:29 GMT 50.059994 9.290128 3,650 65 225 0
2022-10-03 05:21:26 GMT 50.059391 9.288050 3,650 65 225 0
2022-10-03 05:21:25 GMT 50.058243 9.284170 3,650 65 225 0
2022-10-03 05:21:23 GMT 50.057831 9.282652 3,650 65 225 0
2022-10-03 05:21:22 GMT 50.057419 9.281351 3,650 65 225 0
2022-10-03 05:21:20 GMT 50.056736 9.279068 3,650 65 225 0
2022-10-03 05:21:18 GMT 50.055668 9.275430 3,650 65 225 0
2022-10-03 05:21:15 GMT 50.054363 9.270976 3,650 65 225 0
2022-10-03 05:21:13 GMT 50.053482 9.267980 3,650 65 225 0
2022-10-03 05:21:12 GMT 50.053024 9.266534 3,650 65 225 0
2022-10-03 05:21:10 GMT 50.052200 9.263715 3,650 65 225 0
2022-10-03 05:21:09 GMT 50.051708 9.261994 3,650 65 226 0
2022-10-03 05:21:08 GMT 50.051285 9.260607 3,650 65 226 0
2022-10-03 05:21:07 GMT 50.050873 9.259306 3,650 65 227 0
2022-10-03 05:21:05 GMT 50.050034 9.256427 3,650 65 228 0
2022-10-03 05:21:04 GMT 50.049591 9.254825 3,650 65 229 0
2022-10-03 05:21:02 GMT 50.047852 9.249043 3,650 65 229 0
2022-10-03 05:21:00 GMT 50.047852 9.249043 3,650 65 229 0
2022-10-03 05:20:58 GMT 50.046890 9.245862 3,650 65 229 -64
2022-10-03 05:20:56 GMT 50.045975 9.242754 3,650 65 230 0
2022-10-03 05:20:53 GMT 50.044830 9.238851 3,650 65 230 0
2022-10-03 05:20:52 GMT 50.044029 9.236162 3,650 65 230 0
2022-10-03 05:20:50 GMT 50.043282 9.233638 3,650 65 231 0
2022-10-03 05:20:49 GMT 50.042866 9.232301 3,650 65 231 0
2022-10-03 05:20:48 GMT 50.042404 9.230684 3,650 65 231 0
2022-10-03 05:20:47 GMT 50.041515 9.227625 3,650 65 230 0
2022-10-03 05:20:45 GMT 50.041050 9.226140 3,650 65 230 0
2022-10-03 05:20:43 GMT 50.040115 9.223022 3,650 65 230 0
2022-10-03 05:20:41 GMT 50.039234 9.219979 3,650 65 230 0
2022-10-03 05:20:39 GMT 50.038284 9.216879 3,650 65 230 0
2022-10-03 05:20:38 GMT 50.037872 9.215505 3,650 65 230 0
2022-10-03 05:20:37 GMT 50.037464 9.214115 3,650 65 230 64
2022-10-03 05:20:36 GMT 50.036625 9.211220 3,650 65 230 64
2022-10-03 05:20:33 GMT 50.035694 9.208250 3,650 65 230 64
2022-10-03 05:20:31 GMT 50.034805 9.205170 3,650 65 230 64
2022-10-03 05:20:30 GMT 50.034302 9.203507 3,650 65 230 64
2022-10-03 05:20:29 GMT 50.033833 9.201941 3,650 65 230 0
2022-10-03 05:20:26 GMT 50.032482 9.197487 3,650 64 229 0
2022-10-03 05:20:25 GMT 50.031601 9.194545 3,650 65 230 0
2022-10-03 05:20:23 GMT 50.031086 9.192810 3,650 65 230 0
2022-10-03 05:20:21 GMT 50.030182 9.189774 3,650 65 230 -192
2022-10-03 05:20:19 GMT 50.029503 9.187391 3,650 65 230 -128
2022-10-03 05:20:18 GMT 50.029037 9.185906 3,650 65 230 0
2022-10-03 05:20:17 GMT 50.028488 9.184064 3,650 65 230 0
2022-10-03 05:20:14 GMT 50.027176 9.179597 3,650 65 230 64
2022-10-03 05:20:12 GMT 50.026199 9.176403 3,650 65 230 64
2022-10-03 05:20:11 GMT 50.025742 9.174885 3,650 65 230 0
2022-10-03 05:20:10 GMT 50.025467 9.174018 3,650 65 230 -64
2022-10-03 05:20:09 GMT 50.024551 9.170837 3,650 65 230 64
2022-10-03 05:20:07 GMT 50.024105 9.169427 3,650 65 230 64
2022-10-03 05:20:06 GMT 50.023453 9.167349 3,650 65 230 64
2022-10-03 05:20:05 GMT 50.022629 9.164549 3,650 65 230 -64
2022-10-03 05:20:03 GMT 50.022148 9.162969 3,650 65 230 -64
2022-10-03 05:20:02 GMT 50.021313 9.160148 3,650 65 229 -64
2022-10-03 05:20:00 GMT 50.020844 9.158550 3,650 65 229 0
2022-10-03 05:19:59 GMT 50.020340 9.156888 3,650 65 229 0
2022-10-03 05:19:58 GMT 50.019882 9.155225 3,650 65 229 64
2022-10-03 05:19:56 GMT 50.019012 9.152406 3,650 65 229 128
2022-10-03 05:19:55 GMT 50.018600 9.150889 3,650 65 229 128
2022-10-03 05:19:54 GMT 50.017773 9.148122 3,650 65 230 0
2022-10-03 05:19:52 GMT 50.017307 9.146638 3,650 65 229 -64
2022-10-03 05:19:51 GMT 50.016933 9.145302 3,650 65 229 -128
2022-10-03 05:19:49 GMT 50.015579 9.140842 3,650 65 229 0
2022-10-03 05:19:47 GMT 50.015118 9.139289 3,650 65 229 0
2022-10-03 05:19:45 GMT 50.013817 9.134761 3,650 65 230 64
2022-10-03 05:19:43 GMT 50.013336 9.133180 3,650 65 230 64
2022-10-03 05:19:42 GMT 50.012833 9.131518 3,650 65 230 64
2022-10-03 05:19:41 GMT 50.011906 9.128451 3,650 65 230 -64
2022-10-03 05:19:39 GMT 50.011490 9.126966 3,650 65 230 -128
2022-10-03 05:19:38 GMT 50.010975 9.125333 3,650 65 230 -64
2022-10-03 05:19:37 GMT 50.010452 9.123640 3,650 65 230 -64
2022-10-03 05:19:34 GMT 50.009308 9.119737 3,650 65 230 64
2022-10-03 05:19:33 GMT 50.008881 9.118281 3,650 65 230 64
2022-10-03 05:19:31 GMT 50.007996 9.115312 3,650 65 230 0
2022-10-03 05:19:30 GMT 50.007523 9.113737 3,650 65 230 0
2022-10-03 05:19:29 GMT 50.006554 9.110487 3,650 65 230 0
2022-10-03 05:19:27 GMT 50.006042 9.108854 3,650 65 230 0
2022-10-03 05:19:25 GMT 50.005344 9.106404 3,650 65 230 -64
2022-10-03 05:19:24 GMT 50.004879 9.104919 3,650 65 230 -64
2022-10-03 05:19:23 GMT 50.004227 9.102751 3,650 65 230 0
2022-10-03 05:19:21 GMT 50.003311 9.099643 3,650 65 230 64
2022-10-03 05:19:20 GMT 50.002899 9.098270 3,650 65 229 64
2022-10-03 05:19:17 GMT 50.001526 9.093710 3,650 65 230 64
2022-10-03 05:19:16 GMT 50.000271 9.089331 3,650 66 229 64
2022-10-03 05:19:14 GMT 50.000271 9.089331 3,650 67 230 64
2022-10-03 05:19:12 GMT 49.999432 9.086361 3,650 68 230 0
2022-10-03 05:19:11 GMT 49.999058 9.084951 3,650 70 231 -128
2022-10-03 05:19:10 GMT 49.998596 9.083236 3,650 71 231 -128
2022-10-03 05:19:09 GMT 49.997635 9.078538 3,650 77 233 -64
2022-10-03 05:19:07 GMT 49.997635 9.078538 3,650 77 233 -64
2022-10-03 05:19:05 GMT 49.997177 9.075936 3,650 81 234 0
2022-10-03 05:19:03 GMT 49.996765 9.072683 3,650 85 235 0
2022-10-03 05:19:02 GMT 49.996536 9.068563 3,650 91 236 0
2022-10-03 05:18:59 GMT 49.996490 9.065383 3,650 93 236 0
2022-10-03 05:18:57 GMT 49.996582 9.062203 3,650 97 237 0
2022-10-03 05:18:56 GMT 49.996731 9.060454 3,650 99 237 0
2022-10-03 05:18:55 GMT 49.996857 9.058806 3,650 100 238 64
2022-10-03 05:18:53 GMT 49.997223 9.055626 3,650 102 237 64
2022-10-03 05:18:52 GMT 49.997475 9.053922 3,650 104 237 0
2022-10-03 05:18:49 GMT 49.998871 9.045217 3,650 104 237 64
2022-10-03 05:18:47 GMT 49.998871 9.045217 3,650 104 237 0
2022-10-03 05:18:46 GMT 49.999054 9.044278 3,650 104 237 0
2022-10-03 05:18:44 GMT 49.999664 9.040560 3,650 104 237 0
2022-10-03 05:18:43 GMT 49.999924 9.039001 3,650 104 237 -64
2022-10-03 05:18:42 GMT 50.000153 9.037628 3,650 104 237 -64
2022-10-03 05:18:41 GMT 50.001106 9.031949 3,650 104 237 -64
2022-10-03 05:18:39 GMT 50.001106 9.031949 3,650 104 237 0
2022-10-03 05:18:37 GMT 50.001526 9.029500 3,650 104 237 0
2022-10-03 05:18:35 GMT 50.002132 9.026011 3,650 104 237 0
2022-10-03 05:18:33 GMT 50.002533 9.023678 3,650 104 237 0
2022-10-03 05:18:32 GMT 50.002785 9.021928 3,650 104 237 64
2022-10-03 05:18:31 GMT 50.003082 9.020209 3,650 104 236 64
2022-10-03 05:18:29 GMT 50.003586 9.017101 3,650 104 236 128
2022-10-03 05:18:28 GMT 50.003853 9.015470 3,650 104 236 192
2022-10-03 05:18:26 GMT 50.004505 9.011684 3,650 106 237 0
2022-10-03 05:18:25 GMT 50.004776 9.010018 3,650 106 237 0
2022-10-03 05:18:23 GMT 50.005249 9.007304 3,650 107 237 -192
2022-10-03 05:18:21 GMT 50.006042 9.003222 3,650 109 239 -192
2022-10-03 05:18:19 GMT 50.006695 8.999955 3,650 111 238 0
2022-10-03 05:18:17 GMT 50.007339 8.997514 3,650 111 238 0
2022-10-03 05:18:16 GMT 50.008209 8.994333 3,650 117 238 -64
2022-10-03 05:18:14 GMT 50.008713 8.992671 3,650 121 239 -64
2022-10-03 05:18:13 GMT 50.009857 8.989637 3,650 123 239 -64
2022-10-03 05:18:11 GMT 50.010498 8.988117 3,650 127 239 0
2022-10-03 05:18:09 GMT 50.011768 8.985406 3,650 131 239 -64
2022-10-03 05:18:07 GMT 50.013119 8.982882 3,650 144 237 64
2022-10-03 05:18:04 GMT 50.015808 8.978649 3,650 144 237 64
2022-10-03 05:18:01 GMT 50.018192 8.975682 3,650 150 237 64
2022-10-03 05:17:59 GMT 50.019588 8.974271 3,650 150 237 64
2022-10-03 05:17:58 GMT 50.020981 8.973011 3,650 154 237 -64
2022-10-03 05:17:57 GMT 50.022766 8.971566 3,650 156 238 -128
2022-10-03 05:17:55 GMT 50.023731 8.970857 3,650 159 237 -128
2022-10-03 05:17:54 GMT 50.024849 8.970114 3,650 161 237 -64
2022-10-03 05:17:53 GMT 50.025833 8.969542 3,650 163 237 -64
2022-10-03 05:17:51 GMT 50.027985 8.968530 3,650 167 238 -256
2022-10-03 05:17:50 GMT 50.029175 8.968024 3,675 170 238 -448
2022-10-03 05:17:49 GMT 50.030296 8.967665 3,675 174 238 -640
2022-10-03 05:17:48 GMT 50.032471 8.967229 3,700 177 239 -896
2022-10-03 05:17:46 GMT 50.033569 8.967084 3,700 182 238 -1088
2022-10-03 05:17:45 GMT 50.034576 8.966940 3,750 184 238 -1088
2022-10-03 05:17:43 GMT 50.037277 8.966940 3,750 186 238 -1088
2022-10-03 05:17:41 GMT 50.039326 8.967219 3,825 192 238 -1024
2022-10-03 05:17:40 GMT 50.040527 8.967446 3,825 194 238 -1024
2022-10-03 05:17:39 GMT 50.042725 8.968110 3,850 196 238 -1024
2022-10-03 05:17:37 GMT 50.043869 8.968530 3,875 200 238 -1088
2022-10-03 05:17:36 GMT 50.044830 8.968964 3,900 202 239 -1152
2022-10-03 05:17:35 GMT 50.047100 8.970188 3,925 204 238 -1152
2022-10-03 05:17:33 GMT 50.048126 8.970857 3,950 209 238 -1152
2022-10-03 05:17:32 GMT 50.049240 8.971599 3,975 211 238 -1216
2022-10-03 05:17:31 GMT 50.051197 8.973232 4,000 213 238 -1344
2022-10-03 05:17:29 GMT 50.052246 8.974240 4,050 217 238 -1280
2022-10-03 05:17:28 GMT 50.053162 8.975252 4,075 219 238 -1280
2022-10-03 05:17:27 GMT 50.054718 8.976914 4,100 223 238 -1152
2022-10-03 05:17:25 GMT 50.055542 8.977998 4,125 225 238 -1088
2022-10-03 05:17:24 GMT 50.056412 8.979171 4,125 227 238 -1088
2022-10-03 05:17:23 GMT 50.057201 8.980358 4,175 229 237 -1024
2022-10-03 05:17:22 GMT 50.058746 8.982841 4,200 233 237 -1024
2022-10-03 05:17:19 GMT 50.060226 8.985703 4,225 238 237 -1024
2022-10-03 05:17:18 GMT 50.061298 8.988004 4,275 241 235 -1088
2022-10-03 05:17:15 GMT 50.062603 8.991493 4,300 246 234 -1280
2022-10-03 05:17:14 GMT 50.063553 8.994406 4,350 248 233 -1152
2022-10-03 05:17:12 GMT 50.064011 8.995923 4,350 248 233 -1152
2022-10-03 05:17:11 GMT 50.064835 8.998887 4,400 249 232 -1024
2022-10-03 05:17:09 GMT 50.065208 9.000549 4,400 250 232 -960
2022-10-03 05:17:07 GMT 50.066071 9.003874 4,450 250 231 -1024
2022-10-03 05:17:05 GMT 50.066757 9.006838 4,475 250 231 -1088
2022-10-03 05:17:04 GMT 50.067169 9.008355 4,500 250 231 -1088
2022-10-03 05:17:03 GMT 50.067909 9.011461 4,525 250 231 -1088
2022-10-03 05:17:01 GMT 50.068283 9.013020 4,550 250 231 -1088
2022-10-03 05:17:00 GMT 50.068680 9.014644 4,575 250 231 -1088
2022-10-03 05:16:59 GMT 50.069073 9.016286 4,600 250 231 -1024
2022-10-03 05:16:57 GMT 50.069870 9.019486 4,625 250 231 -1088
2022-10-03 05:16:56 GMT 50.070236 9.020963 4,650 250 231 -1152
2022-10-03 05:16:55 GMT 50.070602 9.022594 4,675 250 231 -1152
2022-10-03 05:16:54 GMT 50.070969 9.023968 4,675 250 231 -1152
2022-10-03 05:16:52 GMT 50.071747 9.027292 4,725 250 232 -1152
2022-10-03 05:16:51 GMT 50.072113 9.028666 4,750 250 232 -1088
2022-10-03 05:16:50 GMT 50.072433 9.030039 4,750 249 231 -1088
2022-10-03 05:16:49 GMT 50.073257 9.033291 4,800 249 232 -960
2022-10-03 05:16:47 GMT 50.073589 9.034770 4,800 249 232 -960
2022-10-03 05:16:45 GMT 50.074333 9.037740 4,850 249 232 -896
2022-10-03 05:16:44 GMT 50.074768 9.039435 4,850 249 233 -832
2022-10-03 05:16:42 GMT 50.075958 9.044278 4,900 249 233 -832
2022-10-03 05:16:40 GMT 50.076382 9.045905 4,900 249 233 -832
2022-10-03 05:16:39 GMT 50.076736 9.047386 4,925 250 234 -896
2022-10-03 05:16:38 GMT 50.077881 9.052084 4,975 249 234 -896
2022-10-03 05:16:36 GMT 50.077881 9.052084 4,975 249 234 -896
2022-10-03 05:16:35 GMT 50.078247 9.053529 4,975 249 234 -832
2022-10-03 05:16:33 GMT 50.079082 9.056891 5,025 249 235 -832
2022-10-03 05:16:32 GMT 50.079483 9.058372 5,025 249 235 -896
2022-10-03 05:16:31 GMT 50.079922 9.060158 5,050 250 235 -896
2022-10-03 05:16:29 GMT 50.080711 9.063350 5,075 250 236 -960
2022-10-03 05:16:27 GMT 50.081314 9.065817 5,100 250 236 -960
2022-10-03 05:16:26 GMT 50.081829 9.068100 5,125 253 237 -1024
2022-10-03 05:16:25 GMT 50.082230 9.069792 5,150 253 237 -1024
2022-10-03 05:16:23 GMT 50.082779 9.072322 5,175 254 236 -1024
2022-10-03 05:16:22 GMT 50.083084 9.073890 5,200 258 238 -896
2022-10-03 05:16:20 GMT 50.083923 9.078538 5,225 260 237 -832
2022-10-03 05:16:18 GMT 50.084061 9.080056 5,250 264 238 -704
2022-10-03 05:16:17 GMT 50.084248 9.081611 5,250 266 238 -640
2022-10-03 05:16:15 GMT 50.084530 9.085322 5,275 271 238 -576
2022-10-03 05:16:14 GMT 50.084621 9.086881 5,275 273 238 -576
2022-10-03 05:16:13 GMT 50.084610 9.088801 5,300 277 238 -576
2022-10-03 05:16:11 GMT 50.084518 9.092054 5,300 277 238 -576
2022-10-03 05:16:10 GMT 50.084381 9.093861 5,325 281 238 -640
2022-10-03 05:16:08 GMT 50.083832 9.098920 5,350 286 238 -640
2022-10-03 05:16:06 GMT 50.083557 9.100727 5,350 287 239 -640
2022-10-03 05:16:05 GMT 50.083237 9.102390 5,375 288 239 -576
2022-10-03 05:16:04 GMT 50.082897 9.104103 5,375 289 239 -576
2022-10-03 05:16:01 GMT 50.081829 9.109002 5,425 290 241 -512
2022-10-03 05:16:00 GMT 50.081543 9.110413 5,425 290 242 -512
2022-10-03 05:15:58 GMT 50.080757 9.113753 5,450 290 243 -448
2022-10-03 05:15:57 GMT 50.080433 9.115163 5,450 290 243 -448
2022-10-03 05:15:56 GMT 50.080032 9.116918 5,450 290 244 -448
2022-10-03 05:15:55 GMT 50.079639 9.118652 5,450 290 245 -448
2022-10-03 05:15:53 GMT 50.078796 9.122194 5,475 290 246 -448
2022-10-03 05:15:52 GMT 50.078430 9.123856 5,475 290 246 -448
2022-10-03 05:15:51 GMT 50.078056 9.125407 5,475 290 247 -448
2022-10-03 05:15:49 GMT 50.077286 9.128699 5,500 290 248 -448
2022-10-03 05:15:48 GMT 50.076965 9.130145 5,500 290 248 -448
2022-10-03 05:15:46 GMT 50.076149 9.133647 5,525 290 250 -448
2022-10-03 05:15:45 GMT 50.075825 9.135132 5,525 290 250 -448
2022-10-03 05:15:44 GMT 50.075455 9.136722 5,550 290 251 -512
2022-10-03 05:15:43 GMT 50.074333 9.141367 5,575 290 254 -448
2022-10-03 05:15:40 GMT 50.073761 9.143878 5,575 290 254 -448
2022-10-03 05:15:39 GMT 50.073395 9.145612 5,575 290 255 -448
2022-10-03 05:15:36 GMT 50.072098 9.151166 5,600 290 257 -448
2022-10-03 05:15:35 GMT 50.071655 9.152985 5,625 290 257 -448
2022-10-03 05:15:33 GMT 50.070923 9.156093 5,625 290 259 -512
2022-10-03 05:15:32 GMT 50.070515 9.157921 5,625 290 260 -512
2022-10-03 05:15:31 GMT 50.070099 9.159779 5,650 290 260 -512
2022-10-03 05:15:29 GMT 50.069260 9.163414 5,675 290 261 -512
2022-10-03 05:15:28 GMT 50.068886 9.164973 5,675 290 262 -512
2022-10-03 05:15:27 GMT 50.068451 9.166790 5,675 290 262 -512
2022-10-03 05:15:25 GMT 50.067581 9.170548 5,700 290 263 -512
2022-10-03 05:15:23 GMT 50.066071 9.177126 5,725 290 266 -512
2022-10-03 05:15:20 GMT 50.064697 9.183011 5,750 290 268 -512
2022-10-03 05:15:18 GMT 50.064697 9.183011 5,750 290 268 -512
2022-10-03 05:15:17 GMT 50.064278 9.184793 5,775 290 270 -512
2022-10-03 05:15:15 GMT 50.063644 9.187606 5,775 290 270 -512
2022-10-03 05:15:13 GMT 50.063023 9.190286 5,800 290 272 -512
2022-10-03 05:15:12 GMT 50.062317 9.193316 5,800 290 272 -576
2022-10-03 05:15:11 GMT 50.061859 9.195185 5,825 290 274 -512
2022-10-03 05:15:10 GMT 50.061401 9.197147 5,825 290 274 -512
2022-10-03 05:15:09 GMT 50.060898 9.199387 5,850 290 275 -512
2022-10-03 05:15:07 GMT 50.060089 9.202980 5,850 290 276 -576
2022-10-03 05:15:05 GMT 50.059204 9.206615 5,875 291 277 -576
2022-10-03 05:15:04 GMT 50.058784 9.208547 5,875 290 278 -576
2022-10-03 05:15:03 GMT 50.058365 9.210255 5,900 290 279 -640
2022-10-03 05:15:01 GMT 50.057529 9.213818 5,925 290 280 -576
2022-10-03 05:15:00 GMT 50.057053 9.216011 5,925 290 281 -576
2022-10-03 05:14:58 GMT 50.056137 9.219770 5,950 290 281 -576
2022-10-03 05:14:57 GMT 50.055771 9.221505 5,950 290 284 -448
2022-10-03 05:14:56 GMT 50.055248 9.223691 5,950 290 284 -448
2022-10-03 05:14:55 GMT 50.054855 9.225335 5,975 290 285 -448
2022-10-03 05:14:54 GMT 50.053944 9.229258 6,025 291 286 -640
2022-10-03 05:14:51 GMT 50.053059 9.233118 6,025 290 287 -1152
2022-10-03 05:14:50 GMT 50.052593 9.235048 6,025 290 288 -1344
2022-10-03 05:14:47 GMT 50.051468 9.240008 6,100 290 289 -1472
2022-10-03 05:14:46 GMT 50.050964 9.242026 6,125 290 290 -1472
2022-10-03 05:14:45 GMT 50.050358 9.244772 6,125 290 290 -1472
2022-10-03 05:14:44 GMT 50.049847 9.246925 6,175 290 291 -1536
2022-10-03 05:14:43 GMT 50.049381 9.248855 6,250 290 291 -1536
2022-10-03 05:14:41 GMT 50.047668 9.256487 6,275 290 294 -1408
2022-10-03 05:14:39 GMT 50.047668 9.256487 6,300 290 295 -1344
2022-10-03 05:14:38 GMT 50.047241 9.258431 6,325 290 296 -1344
2022-10-03 05:14:37 GMT 50.046776 9.260361 6,350 290 297 -1280
2022-10-03 05:14:35 GMT 50.045929 9.264293 6,400 290 299 -1280
2022-10-03 05:14:33 GMT 50.044464 9.270799 6,425 289 301 -1280
2022-10-03 05:14:31 GMT 50.043983 9.272906 6,475 289 302 -1216
2022-10-03 05:14:30 GMT 50.043564 9.274985 6,475 289 303 -1216
2022-10-03 05:14:29 GMT 50.043003 9.277434 6,500 289 304 -1216
2022-10-03 05:14:27 GMT 50.042267 9.280845 6,550 288 306 -1216
2022-10-03 05:14:26 GMT 50.041840 9.282853 6,550 288 307 -1216
2022-10-03 05:14:25 GMT 50.040939 9.287350 6,600 286 309 -1216
2022-10-03 05:14:23 GMT 50.040489 9.289534 6,625 286 311 -1216
2022-10-03 05:14:22 GMT 50.040070 9.291910 6,650 284 312 -1280
2022-10-03 05:14:20 GMT 50.039383 9.296168 6,700 282 314 -1408
2022-10-03 05:14:19 GMT 50.039062 9.298553 6,725 280 315 -1472
2022-10-03 05:14:18 GMT 50.038769 9.300669 6,750 278 317 -1472
2022-10-03 05:14:17 GMT 50.038513 9.303035 6,775 277 317 -1536
2022-10-03 05:14:16 GMT 50.038101 9.308962 6,825 274 320 -1600
2022-10-03 05:14:14 GMT 50.038101 9.308962 6,850 272 321 -1664
2022-10-03 05:14:11 GMT 50.037930 9.315515 6,925 269 324 -1728
2022-10-03 05:14:10 GMT 50.037975 9.317594 6,950 267 324 -1792
2022-10-03 05:14:09 GMT 50.038055 9.320743 6,975 263 327 -1856
2022-10-03 05:14:08 GMT 50.038284 9.324718 7,050 263 327 -1856
2022-10-03 05:14:06 GMT 50.038536 9.328135 7,100 261 329 -1856
2022-10-03 05:14:05 GMT 50.038628 9.329545 7,100 258 331 -1920
2022-10-03 05:14:04 GMT 50.039246 9.334114 7,150 256 333 -1984
2022-10-03 05:14:01 GMT 50.040024 9.339246 7,225 253 336 -1984
2022-10-03 05:13:58 GMT 50.041374 9.346099 7,325 251 340 -1856
2022-10-03 05:13:57 GMT 50.041901 9.348498 7,350 250 341 -1856
2022-10-03 05:13:55 GMT 50.043003 9.353225 7,425 250 343 -1792
2022-10-03 05:13:54 GMT 50.043594 9.355581 7,450 250 344 -1792
2022-10-03 05:13:53 GMT 50.044682 9.359906 7,500 249 346 -1728
2022-10-03 05:13:51 GMT 50.045517 9.363243 7,550 249 347 -1728
2022-10-03 05:13:50 GMT 50.046124 9.365696 7,575 249 348 -1728
2022-10-03 05:13:49 GMT 50.046570 9.367652 7,600 249 348 -1728
2022-10-03 05:13:48 GMT 50.047844 9.372674 7,625 249 350 -1664
2022-10-03 05:13:46 GMT 50.048492 9.375096 7,700 249 351 -1600
2022-10-03 05:13:45 GMT 50.048775 9.376386 7,700 249 353 -1600
2022-10-03 05:13:44 GMT 50.050079 9.381359 7,750 248 356 -1536
2022-10-03 05:13:42 GMT 50.050644 9.383553 7,800 248 356 -1472
2022-10-03 05:13:41 GMT 50.051243 9.385813 7,800 247 359 -1472
2022-10-03 05:13:40 GMT 50.052689 9.391306 7,875 247 359 -1472
2022-10-03 05:13:38 GMT 50.053432 9.393904 7,900 246 361 -1536
2022-10-03 05:13:37 GMT 50.054035 9.395983 7,925 245 362 -1536
2022-10-03 05:13:36 GMT 50.054672 9.398298 7,950 244 363 -1600
2022-10-03 05:13:34 GMT 50.056271 9.403332 8,000 241 366 -1792
2022-10-03 05:13:32 GMT 50.057110 9.405856 8,050 240 368 -1920
2022-10-03 05:13:31 GMT 50.058273 9.409196 8,175 237 371 -2112
2022-10-03 05:13:29 GMT 50.059624 9.412537 8,175 236 372 -2304
2022-10-03 05:13:28 GMT 50.060989 9.415861 8,200 236 372 -2304
2022-10-03 05:13:27 GMT 50.061905 9.417584 8,225 231 375 -2688
2022-10-03 05:13:25 GMT 50.063828 9.421644 8,350 228 378 -3072
2022-10-03 05:13:24 GMT 50.066139 9.425898 8,450 225 379 -3456
2022-10-03 05:13:22 GMT 50.067352 9.428004 8,525 224 380 -3712
2022-10-03 05:13:21 GMT 50.068653 9.430055 8,725 223 380 -3904
2022-10-03 05:13:19 GMT 50.071701 9.434798 8,725 219 383 -3776
2022-10-03 05:13:17 GMT 50.073853 9.437617 8,875 219 383 -3776
2022-10-03 05:13:16 GMT 50.075226 9.439424 8,900 218 383 -3648
2022-10-03 05:13:15 GMT 50.078110 9.443110 9,025 215 385 -3584
2022-10-03 05:13:13 GMT 50.079575 9.444701 9,075 213 387 -3520
2022-10-03 05:13:12 GMT 50.081268 9.446535 9,150 211 388 -3520
2022-10-03 05:13:11 GMT 50.082199 9.447351 9,250 210 389 -3520
2022-10-03 05:13:09 GMT 50.085415 9.450395 9,325 208 391 -3520
2022-10-03 05:13:08 GMT 50.086948 9.451805 9,400 206 391 -3520
2022-10-03 05:13:07 GMT 50.090836 9.455036 9,475 205 392 -3520
2022-10-03 05:13:03 GMT 50.095375 9.458338 9,675 200 396 -3456
2022-10-03 05:13:01 GMT 50.099030 9.460530 9,800 198 397 -3392
2022-10-03 05:12:59 GMT 50.102509 9.462336 9,900 195 399 -3328
2022-10-03 05:12:57 GMT 50.106129 9.463979 10,000 193 401 -3392
2022-10-03 05:12:56 GMT 50.107758 9.464647 10,050 190 402 -3456
2022-10-03 05:12:54 GMT 50.111435 9.465878 10,175 190 402 -3456
2022-10-03 05:12:53 GMT 50.113903 9.466577 10,250 188 404 -3520
2022-10-03 05:12:51 GMT 50.116058 9.467035 10,325 187 404 -3584
2022-10-03 05:12:50 GMT 50.118885 9.467691 10,425 181 408 -3456
2022-10-03 05:12:49 GMT 50.125122 9.468336 10,600 181 408 -3456
2022-10-03 05:12:47 GMT 50.125122 9.468336 10,625 181 408 -3456
2022-10-03 05:12:46 GMT 50.126816 9.468480 10,675 177 411 -3200
2022-10-03 05:12:44 GMT 50.129837 9.468552 10,825 176 411 -3200
2022-10-03 05:12:42 GMT 50.132755 9.468359 10,825 175 413 -3136
2022-10-03 05:12:41 GMT 50.135651 9.468119 10,925 172 415 -2944
2022-10-03 05:12:39 GMT 50.139450 9.467541 11,000 170 416 -2944
2022-10-03 05:12:38 GMT 50.145126 9.466240 11,125 168 418 -3008
2022-10-03 05:12:36 GMT 50.145126 9.466240 11,250 165 418 -3200
2022-10-03 05:12:34 GMT 50.150528 9.464433 11,350 163 419 -3328
2022-10-03 05:12:32 GMT 50.152405 9.463638 11,375 163 420 -3328
2022-10-03 05:12:31 GMT 50.154358 9.462792 11,425 162 420 -3264
2022-10-03 05:12:30 GMT 50.156113 9.461975 11,500 161 419 -3264
2022-10-03 05:12:29 GMT 50.159637 9.460240 11,600 161 421 -3072
2022-10-03 05:12:27 GMT 50.161572 9.459229 11,650 161 421 -3008
2022-10-03 05:12:26 GMT 50.163387 9.458264 11,675 161 421 -3008
2022-10-03 05:12:25 GMT 50.165314 9.457277 11,750 161 421 -3008
2022-10-03 05:12:24 GMT 50.169205 9.455181 11,850 161 422 -3008
2022-10-03 05:12:22 GMT 50.170929 9.454255 11,900 161 423 -3072
2022-10-03 05:12:21 GMT 50.173096 9.453157 11,950 161 423 -3072
2022-10-03 05:12:18 GMT 50.179123 9.449950 12,125 160 426 -2944
2022-10-03 05:12:17 GMT 50.180565 9.449133 12,150 160 426 -2880
2022-10-03 05:12:15 GMT 50.183918 9.447351 12,250 160 428 -2752
2022-10-03 05:12:14 GMT 50.186096 9.446146 12,325 160 429 -2688
2022-10-03 05:12:13 GMT 50.187828 9.445199 12,325 159 430 -2688
2022-10-03 05:12:11 GMT 50.191681 9.443038 12,425 158 432 -2880
2022-10-03 05:12:10 GMT 50.193695 9.441809 12,500 157 434 -2944
2022-10-03 05:12:08 GMT 50.197327 9.439631 12,550 156 434 -3072
2022-10-03 05:12:07 GMT 50.199234 9.438268 12,650 154 434 -3328
2022-10-03 05:12:06 GMT 50.201141 9.436959 12,700 152 434 -3456
2022-10-03 05:12:05 GMT 50.202770 9.435771 12,750 151 435 -3456
2022-10-03 05:12:03 GMT 50.206310 9.432876 12,900 149 436 -3456
2022-10-03 05:12:02 GMT 50.207893 9.431540 12,925 148 436 -3456
2022-10-03 05:12:01 GMT 50.210220 9.429378 13,000 147 437 -3328
2022-10-03 05:12:00 GMT 50.212097 9.427571 13,075 146 438 -3264
2022-10-03 05:11:59 GMT 50.214661 9.425041 13,150 144 439 -3200
2022-10-03 05:11:57 GMT 50.216492 9.423089 13,200 143 439 -3136
2022-10-03 05:11:56 GMT 50.218094 9.421282 13,250 142 439 -3072
2022-10-03 05:11:54 GMT 50.221344 9.417524 13,350 139 440 -3072
2022-10-03 05:11:53 GMT 50.223114 9.415209 13,425 138 440 -3072
2022-10-03 05:11:51 GMT 50.225967 9.411380 13,500 136 442 -3136
2022-10-03 05:11:50 GMT 50.227615 9.409067 13,575 135 441 -3264
2022-10-03 05:11:48 GMT 50.232147 9.401996 13,725 132 441 -3520
2022-10-03 05:11:45 GMT 50.233498 9.399694 13,800 128 440 -3712
2022-10-03 05:11:43 GMT 50.236568 9.394127 14,175 128 440 -3712
2022-10-03 05:11:40 GMT 50.242859 9.381529 14,250 126 441 -3648
2022-10-03 05:11:38 GMT 50.242859 9.381529 14,250 126 442 -3648
2022-10-03 05:11:36 GMT 50.247803 9.370976 14,550 126 442 -3520
2022-10-03 05:11:34 GMT 50.247803 9.370976 14,550 126 442 -3520
2022-10-03 05:11:33 GMT 50.249092 9.368294 14,625 126 442 -3520
2022-10-03 05:11:32 GMT 50.253048 9.359832 14,675 126 444 -3584
2022-10-03 05:11:30 GMT 50.253048 9.359832 14,750 126 444 -3712
2022-10-03 05:11:29 GMT 50.254211 9.357388 14,850 126 444 -3712
2022-10-03 05:11:28 GMT 50.255447 9.354786 14,875 126 444 -3776
2022-10-03 05:11:27 GMT 50.256584 9.352335 14,975 126 444 -3840
2022-10-03 05:11:26 GMT 50.257935 9.349514 15,050 126 444 -3840
2022-10-03 05:11:24 GMT 50.260494 9.344095 15,175 126 444 -3904
2022-10-03 05:11:22 GMT 50.261627 9.341631 15,250 126 444 -3904
2022-10-03 05:11:20 GMT 50.265793 9.332886 15,500 126 445 -3840
2022-10-03 05:11:17 GMT 50.269249 9.325463 15,550 126 446 -3776
2022-10-03 05:11:16 GMT 50.270416 9.323056 15,675 126 446 -3712
2022-10-03 05:11:14 GMT 50.271667 9.320341 15,800 126 446 -3712
2022-10-03 05:11:13 GMT 50.272926 9.317742 15,800 126 447 -3712
2022-10-03 05:11:11 GMT 50.275345 9.312546 15,925 126 447 -3712
2022-10-03 05:11:09 GMT 50.277237 9.308528 16,025 126 447 -3712
2022-10-03 05:11:08 GMT 50.279305 9.304232 16,075 126 447 -3648
2022-10-03 05:11:06 GMT 50.282375 9.297774 16,300 126 449 -3712
2022-10-03 05:11:05 GMT 50.283646 9.295012 16,325 126 449 -3712
2022-10-03 05:11:03 GMT 50.285751 9.290603 16,500 126 449 -3776
2022-10-03 05:11:01 GMT 50.287636 9.286565 16,525 126 449 -3776
2022-10-03 05:11:00 GMT 50.290192 9.281207 16,675 126 449 -3776
2022-10-03 05:10:56 GMT 50.293968 9.273277 16,900 126 451 -3648
2022-10-03 05:10:53 GMT 50.297974 9.264727 17,075 126 452 -3520
2022-10-03 05:10:52 GMT 50.299438 9.261619 17,125 126 453 -3456
2022-10-03 05:10:50 GMT 50.301880 9.256501 17,225 126 453 -3392
2022-10-03 05:10:49 GMT 50.302998 9.254126 17,275 126 454 -3392
2022-10-03 05:10:47 GMT 50.304859 9.250191 17,350 126 454 -3456
2022-10-03 05:10:46 GMT 50.307838 9.243807 17,450 126 455 -3456
2022-10-03 05:10:45 GMT 50.307838 9.243807 17,500 126 455 -3520
2022-10-03 05:10:43 GMT 50.310448 9.238240 17,600 126 456 -3520
2022-10-03 05:10:42 GMT 50.311752 9.235527 17,700 126 456 -3584
2022-10-03 05:10:41 GMT 50.313034 9.232852 17,750 126 456 -3584
2022-10-03 05:10:40 GMT 50.314133 9.230467 17,800 126 457 -3648
2022-10-03 05:10:39 GMT 50.317245 9.223818 17,950 126 457 -3712
2022-10-03 05:10:36 GMT 50.319122 9.219842 18,050 126 457 -3776
2022-10-03 05:10:34 GMT 50.321712 9.214337 18,175 126 458 -3776
2022-10-03 05:10:32 GMT 50.324249 9.208856 18,325 126 458 -3776
2022-10-03 05:10:31 GMT 50.326767 9.203507 18,425 126 460 -3648
2022-10-03 05:10:29 GMT 50.327950 9.200976 18,475 126 460 -3648
2022-10-03 05:10:28 GMT 50.330605 9.195408 18,600 126 461 -3584
2022-10-03 05:10:26 GMT 50.331802 9.192810 18,675 126 462 -3584
2022-10-03 05:10:25 GMT 50.332947 9.190425 18,725 126 462 -3584
2022-10-03 05:10:23 GMT 50.336105 9.183703 18,875 126 462 -3648
2022-10-03 05:10:22 GMT 50.337307 9.181156 18,925 126 462 -3648
2022-10-03 05:10:20 GMT 50.339767 9.175897 19,000 126 463 -3712
2022-10-03 05:10:19 GMT 50.341003 9.173150 19,100 126 463 -3712
2022-10-03 05:10:18 GMT 50.342335 9.170318 19,175 126 464 -3712
2022-10-03 05:10:16 GMT 50.344299 9.166139 19,300 126 465 -3648
2022-10-03 05:10:15 GMT 50.345638 9.163340 19,325 126 465 -3648
2022-10-03 05:10:14 GMT 50.346954 9.160502 19,400 126 465 -3584
2022-10-03 05:10:12 GMT 50.349747 9.154502 19,525 126 466 -3584
2022-10-03 05:10:11 GMT 50.350853 9.152205 19,575 126 466 -3584
2022-10-03 05:10:10 GMT 50.353645 9.146267 19,700 126 467 -3520
2022-10-03 05:10:08 GMT 50.354736 9.143950 19,750 126 467 -3520
2022-10-03 05:10:07 GMT 50.355835 9.141590 19,800 126 468 -3520
2022-10-03 05:10:06 GMT 50.357231 9.138621 19,875 126 469 -3520
2022-10-03 05:10:04 GMT 50.359791 9.133202 20,000 126 469 -3520
2022-10-03 05:10:03 GMT 50.361095 9.130455 20,050 126 470 -3456
2022-10-03 05:10:02 GMT 50.362492 9.127486 20,100 126 470 -3456
2022-10-03 05:10:01 GMT 50.363796 9.124739 20,225 126 471 -3392
2022-10-03 05:09:59 GMT 50.366455 9.119158 20,350 126 472 -3328
2022-10-03 05:09:57 GMT 50.368450 9.114941 20,350 126 472 -3328
2022-10-03 05:09:56 GMT 50.371536 9.108461 20,500 126 474 -3264
2022-10-03 05:09:54 GMT 50.372780 9.105884 20,550 126 474 -3264
2022-10-03 05:09:53 GMT 50.374512 9.102173 20,625 126 474 -3264
2022-10-03 05:09:52 GMT 50.375900 9.099278 20,725 126 476 -3328
2022-10-03 05:09:50 GMT 50.378036 9.094728 20,775 126 476 -3328
2022-10-03 05:09:49 GMT 50.379295 9.092152 20,950 126 478 -3328
2022-10-03 05:09:47 GMT 50.382046 9.086287 20,950 126 478 -3328
2022-10-03 05:09:45 GMT 50.384697 9.080794 21,100 126 479 -3328
2022-10-03 05:09:43 GMT 50.386700 9.076637 21,150 126 479 -3328
2022-10-03 05:09:42 GMT 50.388653 9.072480 21,200 126 480 -3264
2022-10-03 05:09:41 GMT 50.390144 9.069437 21,300 126 482 -3264
2022-10-03 05:09:39 GMT 50.392868 9.063721 21,400 126 482 -3200
2022-10-03 05:09:37 GMT 50.395660 9.057866 21,500 126 484 -3200
2022-10-03 05:09:35 GMT 50.398010 9.052957 21,600 126 485 -3328
2022-10-03 05:09:34 GMT 50.401978 9.044711 21,775 126 485 -3392
2022-10-03 05:09:32 GMT 50.401978 9.044711 21,825 127 486 -3520
2022-10-03 05:09:30 GMT 50.404816 9.038785 21,900 126 487 -3520
2022-10-03 05:09:29 GMT 50.406250 9.035884 21,975 127 488 -3392
2022-10-03 05:09:27 GMT 50.410442 9.027124 22,125 127 491 -2944
2022-10-03 05:09:26 GMT 50.413101 9.021655 22,200 126 492 -2752
2022-10-03 05:09:24 GMT 50.413101 9.021655 22,200 127 492 -2688
2022-10-03 05:09:23 GMT 50.415573 9.016523 22,250 127 493 -2624
2022-10-03 05:09:21 GMT 50.417084 9.013343 22,350 126 495 -2752
2022-10-03 05:09:20 GMT 50.418400 9.010645 22,375 126 495 -2816
2022-10-03 05:09:18 GMT 50.421146 9.004929 22,475 126 497 -3072
2022-10-03 05:09:16 GMT 50.424088 8.998815 22,575 126 497 -3200
2022-10-03 05:09:15 GMT 50.425385 8.996095 22,675 127 498 -3392
2022-10-03 05:09:14 GMT 50.426781 8.993200 22,700 127 498 -3456
2022-10-03 05:09:13 GMT 50.428177 8.990305 22,775 126 499 -3456
2022-10-03 05:09:12 GMT 50.429436 8.987707 22,850 127 499 -3520
2022-10-03 05:09:10 GMT 50.432098 8.982118 23,200 127 500 -3584
2022-10-03 05:09:09 GMT 50.433857 8.978502 23,000 127 500 -3584
2022-10-03 05:09:07 GMT 50.439651 8.966506 23,200 127 501 -3520
2022-10-03 05:09:05 GMT 50.439651 8.966506 23,300 127 503 -3520
2022-10-03 05:09:04 GMT 50.441120 8.963508 23,300 127 503 -3456
2022-10-03 05:09:02 GMT 50.443863 8.957833 23,425 127 504 -3264
2022-10-03 05:09:00 GMT 50.446194 8.953041 23,500 127 505 -3264
2022-10-03 05:08:58 GMT 50.448986 8.947177 23,625 127 506 -3392
2022-10-03 05:08:57 GMT 50.450455 8.944172 23,675 127 506 -3520
2022-10-03 05:08:56 GMT 50.451965 8.941090 23,750 127 506 -3648
2022-10-03 05:08:55 GMT 50.455086 8.934706 23,875 127 508 -3776
2022-10-03 05:08:53 GMT 50.456619 8.931439 23,950 127 508 -3776
2022-10-03 05:08:52 GMT 50.458065 8.928544 24,000 127 508 -3712
2022-10-03 05:08:51 GMT 50.460938 8.922561 24,125 127 511 -3328
2022-10-03 05:08:48 GMT 50.462997 8.918300 24,175 127 511 -3136
2022-10-03 05:08:46 GMT 50.465378 8.913381 24,375 127 513 -2688
2022-10-03 05:08:44 GMT 50.468491 8.906876 24,375 127 518 -3200
2022-10-03 05:08:43 GMT 50.469955 8.903913 24,650 127 518 -3200
2022-10-03 05:08:41 GMT 50.473473 8.896699 24,650 127 518 -3200
2022-10-03 05:08:39 GMT 50.475613 8.892171 24,650 127 518 -3200
2022-10-03 05:08:37 GMT 50.479107 8.885044 24,775 127 520 -3392
2022-10-03 05:08:35 GMT 50.482178 8.878809 24,800 127 520 -3520
2022-10-03 05:08:33 GMT 50.484505 8.873984 24,950 127 522 -3456
2022-10-03 05:08:32 GMT 50.486481 8.869942 25,025 127 523 -3392
2022-10-03 05:08:31 GMT 50.488083 8.866690 25,100 127 523 -3264
2022-10-03 05:08:29 GMT 50.490738 8.861269 25,175 127 525 -2880
2022-10-03 05:08:28 GMT 50.492386 8.857944 25,225 127 526 -2752
2022-10-03 05:08:27 GMT 50.493851 8.854980 25,275 127 527 -2624
2022-10-03 05:08:26 GMT 50.496887 8.848745 25,375 127 529 -2560
2022-10-03 05:08:24 GMT 50.498428 8.845584 25,400 127 529 -2624
2022-10-03 05:08:23 GMT 50.499866 8.842732 25,450 127 530 -2816
2022-10-03 05:08:22 GMT 50.502846 8.836645 25,550 127 531 -3264
2022-10-03 05:08:20 GMT 50.504288 8.833731 25,600 127 532 -3456
2022-10-03 05:08:19 GMT 50.508774 8.824551 25,775 127 533 -3776
2022-10-03 05:08:17 GMT 50.508774 8.824551 25,800 127 533 -3904
2022-10-03 05:08:15 GMT 50.511692 8.818607 25,925 127 534 -4096
2022-10-03 05:08:13 GMT 50.514633 8.812625 26,100 127 534 -4160
2022-10-03 05:08:11 GMT 50.519047 8.803538 26,250 127 535 -4352
2022-10-03 05:08:09 GMT 50.520767 8.799977 26,400 127 536 -4416
2022-10-03 05:08:08 GMT 50.522350 8.796783 26,425 127 536 -4416
2022-10-03 05:08:07 GMT 50.527054 8.787281 26,600 127 536 -4224
2022-10-03 05:08:05 GMT 50.527054 8.787281 26,650 127 536 -4224
2022-10-03 05:08:04 GMT 50.527863 8.785521 26,700 127 537 -4224
2022-10-03 05:08:03 GMT 50.530079 8.781045 26,800 127 537 -4224
2022-10-03 05:08:02 GMT 50.531342 8.778438 26,850 127 537 -4288
2022-10-03 05:08:00 GMT 50.533989 8.773028 27,050 127 537 -4352
2022-10-03 05:07:59 GMT 50.535992 8.769020 27,100 127 537 -4416
2022-10-03 05:07:57 GMT 50.538483 8.763910 27,200 127 537 -4480
2022-10-03 05:07:56 GMT 50.539902 8.761003 27,350 127 538 -4608
2022-10-03 05:07:55 GMT 50.541504 8.757766 27,425 127 538 -4672
2022-10-03 05:07:54 GMT 50.544662 8.751261 27,525 127 538 -4736
2022-10-03 05:07:52 GMT 50.546036 8.748514 27,575 127 537 -4736
2022-10-03 05:07:50 GMT 50.549194 8.742009 27,750 127 537 -4736
2022-10-03 05:07:48 GMT 50.552147 8.735987 27,900 127 537 -4736
2022-10-03 05:07:46 GMT 50.555172 8.729751 28,125 127 537 -4672
2022-10-03 05:07:45 GMT 50.557129 8.725743 28,325 127 537 -4672
2022-10-03 05:07:44 GMT 50.558578 8.722783 28,275 127 537 -4608
2022-10-03 05:07:42 GMT 50.561874 8.715989 28,375 127 537 -4544
2022-10-03 05:07:41 GMT 50.563248 8.713242 28,475 127 537 -4480
2022-10-03 05:07:39 GMT 50.564995 8.709634 28,600 127 537 -4416
2022-10-03 05:07:37 GMT 50.568695 8.702039 28,750 127 537 -4416
2022-10-03 05:07:36 GMT 50.570442 8.698500 29,150 127 537 -4352
2022-10-03 05:07:35 GMT 50.571793 8.695753 29,150 127 538 -4096
2022-10-03 05:07:34 GMT 50.574024 8.691076 29,150 127 538 -4096
2022-10-03 05:07:33 GMT 50.574875 8.689390 29,025 127 537 -4160
2022-10-03 05:07:30 GMT 50.580402 8.678086 29,375 127 537 -4032
2022-10-03 05:07:27 GMT 50.584641 8.669475 29,450 127 538 -3968
2022-10-03 05:07:23 GMT 50.589947 8.658637 29,675 127 538 -4160
2022-10-03 05:07:20 GMT 50.595657 8.647035 30,050 127 537 -4288
2022-10-03 05:07:17 GMT 50.598541 8.641181 30,275 127 537 -4224
2022-10-03 05:07:14 GMT 50.603714 8.630700 30,325 127 537 -4224
2022-10-03 05:07:11 GMT 50.608799 8.620408 30,700 127 537 -3968
2022-10-03 05:07:09 GMT 50.610477 8.616993 30,650 127 537 -3968
2022-10-03 05:07:07 GMT 50.615223 8.607491 31,400 128 535 -4608
2022-10-03 05:07:04 GMT 50.618958 8.599910 30,925 128 537 -4096
2022-10-03 05:07:02 GMT 50.620998 8.595837 31,750 128 529 -4928
2022-10-03 05:06:59 GMT 50.626144 8.585526 31,325 128 534 -5056
2022-10-03 05:06:57 GMT 50.629303 8.579094 31,575 128 531 -4928
2022-10-03 05:06:55 GMT 50.632965 8.571793 31,825 128 531 -4928
2022-10-03 05:06:52 GMT 50.636124 8.565433 31,925 128 531 -4928
2022-10-03 05:06:50 GMT 50.645828 8.546062 32,175 128 529 -4928
2022-10-03 05:06:47 GMT 50.645828 8.546062 32,725 128 526 -4864
2022-10-03 05:06:44 GMT 50.649067 8.539495 32,850 128 524 -4864
2022-10-03 05:06:42 GMT 50.653584 8.530513 33,100 128 523 -4736
2022-10-03 05:06:39 GMT 50.656631 8.524379 33,175 128 517 -4480
2022-10-03 05:06:37 GMT 50.663040 8.511585 33,350 128 520 -4544
2022-10-03 05:06:35 GMT 50.663040 8.511585 33,350 128 520 -4544
2022-10-03 05:06:33 GMT 50.666016 8.505586 33,650 128 519 -4480
2022-10-03 05:06:30 GMT 50.669724 8.498214 33,950 128 515 -4544
2022-10-03 05:06:28 GMT 50.673843 8.489908 33,950 128 515 -4544
2022-10-03 05:06:25 GMT 50.677826 8.481891 34,100 128 513 -4608
2022-10-03 05:06:23 GMT 50.679790 8.477936 34,500 128 513 -4352
2022-10-03 05:06:20 GMT 50.684914 8.467712 34,500 128 512 -2816
2022-10-03 05:06:17 GMT 50.688030 8.461533 34,675 128 512 -2688
2022-10-03 05:06:14 GMT 50.693897 8.449860 34,700 128 512 -2048
2022-10-03 05:06:12 GMT 50.696777 8.444181 34,775 128 512 -1792
2022-10-03 05:06:09 GMT 50.701252 8.435287 34,875 128 513 -1024
2022-10-03 05:06:07 GMT 50.704102 8.429631 34,900 128 513 -1152
2022-10-03 05:06:05 GMT 50.707626 8.422654 34,975 128 512 -576
2022-10-03 05:06:02 GMT 50.711334 8.415305 35,000 128 512 0
2022-10-03 05:05:59 GMT 50.715134 8.407733 35,000 128 512 -128
2022-10-03 05:05:56 GMT 50.720581 8.396895 35,000 128 512 0
2022-10-03 05:05:53 GMT 50.723877 8.390350 35,000 128 512 0
2022-10-03 05:05:51 GMT 50.727695 8.382721 35,000 128 513 0
2022-10-03 05:05:48 GMT 50.732895 8.372324 35,000 128 513 0
2022-10-03 05:05:45 GMT 50.736816 8.364563 35,000 128 513 0
2022-10-03 05:05:42 GMT 50.740498 8.357239 35,000 128 513 0
2022-10-03 05:05:39 GMT 50.750366 8.337631 35,000 128 514 0
2022-10-03 05:05:36 GMT 50.750366 8.337631 35,000 128 514 0
2022-10-03 05:05:33 GMT 50.752808 8.332759 35,000 128 514 0
2022-10-03 05:05:31 GMT 50.760235 8.317947 35,000 128 514 0
2022-10-03 05:05:29 GMT 50.760235 8.317947 35,000 128 514 0
2022-10-03 05:05:27 GMT 50.762558 8.313384 35,000 128 515 0
2022-10-03 05:05:24 GMT 50.766285 8.305893 35,000 128 515 0
2022-10-03 05:05:22 GMT 50.770981 8.296682 35,000 128 515 64
2022-10-03 05:05:19 GMT 50.775879 8.286958 35,000 128 515 64
2022-10-03 05:05:16 GMT 50.783371 8.272095 35,000 128 515 64
2022-10-03 05:05:13 GMT 50.785812 8.267286 35,000 128 515 64
2022-10-03 05:05:08 GMT 50.792400 8.254242 35,000 128 516 64
2022-10-03 05:05:05 GMT 50.795101 8.248901 35,000 128 517 0
2022-10-03 05:05:03 GMT 50.798126 8.242864 35,000 128 516 0
2022-10-03 05:05:01 GMT 50.801102 8.237000 35,000 128 518 0
2022-10-03 05:04:58 GMT 50.807190 8.224900 35,000 128 517 0
2022-10-03 05:04:55 GMT 50.810028 8.219332 35,000 128 517 0
2022-10-03 05:04:52 GMT 50.817074 8.205338 35,000 128 518 0
2022-10-03 05:04:50 GMT 50.817074 8.205338 35,000 128 518 0
2022-10-03 05:04:48 GMT 50.820099 8.199215 35,000 128 517 0
2022-10-03 05:04:45 GMT 50.824585 8.190382 35,000 128 518 0
2022-10-03 05:04:43 GMT 50.827835 8.183849 35,000 128 518 0
2022-10-03 05:04:41 GMT 50.830811 8.177911 35,000 128 518 0
2022-10-03 05:04:39 GMT 50.837906 8.163658 35,000 128 519 0
2022-10-03 05:04:36 GMT 50.837906 8.163658 35,000 128 518 0
2022-10-03 05:04:33 GMT 50.843285 8.152771 35,000 128 518 0
2022-10-03 05:04:31 GMT 50.845459 8.148515 35,000 128 518 0
2022-10-03 05:04:28 GMT 50.850266 8.138809 35,000 128 519 0
2022-10-03 05:04:25 GMT 50.857807 8.123627 35,000 128 519 0
2022-10-03 05:04:23 GMT 50.857807 8.123627 35,000 128 519 0
2022-10-03 05:04:20 GMT 50.865768 8.107529 35,000 127 519 -64
2022-10-03 05:04:18 GMT 50.865768 8.107529 35,000 127 519 -64
2022-10-03 05:04:15 GMT 50.869446 8.100052 35,000 127 519 0
2022-10-03 05:04:13 GMT 50.873123 8.092575 35,000 127 519 0
2022-10-03 05:04:11 GMT 50.880569 8.077475 35,000 127 519 0
2022-10-03 05:04:08 GMT 50.880569 8.077475 35,000 127 519 0
2022-10-03 05:04:05 GMT 50.885040 8.068390 35,000 128 519 0
2022-10-03 05:04:03 GMT 50.886391 8.065643 35,000 128 519 0
2022-10-03 05:04:01 GMT 50.890915 8.056542 35,000 128 519 0
2022-10-03 05:03:58 GMT 50.895237 8.047714 35,000 128 519 0
2022-10-03 05:03:55 GMT 50.898819 8.040543 35,000 128 519 0
2022-10-03 05:03:53 GMT 50.902588 8.033010 35,000 128 519 0
2022-10-03 05:03:51 GMT 50.905701 8.026700 35,000 128 519 0
2022-10-03 05:03:48 GMT 50.908676 8.020762 35,000 128 519 0
2022-10-03 05:03:45 GMT 50.913712 8.010592 35,000 128 519 0
2022-10-03 05:03:42 GMT 50.918289 8.001313 35,000 128 519 0
2022-10-03 05:03:40 GMT 50.925915 7.985916 35,000 128 519 0
2022-10-03 05:03:37 GMT 50.925915 7.985916 35,000 128 519 0
2022-10-03 05:03:34 GMT 50.930420 7.976817 35,000 128 519 0
2022-10-03 05:03:31 GMT 50.935410 7.966843 35,000 128 519 0
2022-10-03 05:03:28 GMT 50.938950 7.959671 35,000 128 519 0
2022-10-03 05:03:25 GMT 50.943604 7.950242 35,000 128 519 0
2022-10-03 05:03:22 GMT 50.948120 7.941132 35,000 128 519 0
2022-10-03 05:03:19 GMT 50.953400 7.930496 35,000 128 519 0
2022-10-03 05:03:14 GMT 50.963993 7.909088 35,000 128 519 0
2022-10-03 05:03:10 GMT 50.966721 7.903550 35,000 128 519 0
2022-10-03 05:03:07 GMT 50.969696 7.897611 35,000 128 520 0
2022-10-03 05:03:04 GMT 50.974094 7.888718 35,000 128 520 0
2022-10-03 05:03:01 GMT 50.979588 7.877655 35,000 128 520 0
2022-10-03 05:02:58 GMT 50.983730 7.869263 35,000 128 520 0
2022-10-03 05:02:56 GMT 50.987366 7.861980 35,000 128 520 0
2022-10-03 05:02:53 GMT 50.991180 7.854309 35,000 128 520 0
2022-10-03 05:02:51 GMT 50.993591 7.849360 35,000 128 520 0
2022-10-03 05:02:48 GMT 50.998722 7.839050 35,000 128 520 0
2022-10-03 05:02:45 GMT 51.007141 7.822191 35,000 128 520 0
2022-10-03 05:02:42 GMT 51.010174 7.816010 35,000 128 520 0
2022-10-03 05:02:40 GMT 51.010174 7.816010 35,000 128 519 0
2022-10-03 05:02:37 GMT 51.015472 7.805415 35,000 128 520 0
2022-10-03 05:02:34 GMT 51.018585 7.799179 35,000 128 520 0
2022-10-03 05:02:32 GMT 51.023209 7.789900 35,000 128 520 0
2022-10-03 05:02:29 GMT 51.027306 7.781677 35,000 128 520 0
2022-10-03 05:02:26 GMT 51.031128 7.774089 35,000 128 520 0
2022-10-03 05:02:24 GMT 51.034836 7.766592 35,000 128 519 0
2022-10-03 05:02:21 GMT 51.038864 7.758575 35,000 128 519 0
2022-10-03 05:02:18 GMT 51.043552 7.749176 35,000 128 519 0
2022-10-03 05:02:15 GMT 51.048111 7.740017 35,000 128 520 0
2022-10-03 05:02:12 GMT 51.053093 7.730026 35,000 128 520 0
2022-10-03 05:02:09 GMT 51.056168 7.723908 35,000 128 520 0
2022-10-03 05:02:07 GMT 51.061569 7.713219 35,000 128 520 0
2022-10-03 05:02:05 GMT 51.061569 7.713219 35,000 128 520 0
2022-10-03 05:02:02 GMT 51.068226 7.699966 35,000 128 520 0
2022-10-03 05:01:59 GMT 51.072052 7.692360 35,000 128 520 0
2022-10-03 05:01:56 GMT 51.075760 7.684862 35,000 128 520 0
2022-10-03 05:01:54 GMT 51.078697 7.679062 35,000 128 520 -64
2022-10-03 05:01:52 GMT 51.082397 7.671797 35,000 128 520 0
2022-10-03 05:01:50 GMT 51.085236 7.666156 35,000 128 520 0
2022-10-03 05:01:48 GMT 51.087589 7.661514 35,000 128 520 0
2022-10-03 05:01:46 GMT 51.090500 7.655689 35,000 128 520 0
2022-10-03 05:01:44 GMT 51.094341 7.648163 35,000 128 520 0
2022-10-03 05:01:41 GMT 51.097504 7.641907 35,000 128 520 0
2022-10-03 05:01:39 GMT 51.101486 7.634013 35,000 128 520 0
2022-10-03 05:01:36 GMT 51.105652 7.625809 35,000 128 520 0
2022-10-03 05:01:33 GMT 51.109562 7.618103 35,000 128 521 0
2022-10-03 05:01:30 GMT 51.115753 7.605820 35,000 128 522 -64
2022-10-03 05:01:28 GMT 51.118195 7.600906 35,000 128 522 -64
2022-10-03 05:01:25 GMT 51.121899 7.593613 35,000 128 522 192
2022-10-03 05:01:23 GMT 51.124924 7.587662 35,000 128 522 192
2022-10-03 05:01:21 GMT 51.129299 7.578964 34,975 128 522 704
2022-10-03 05:01:18 GMT 51.136780 7.564235 34,925 128 522 1088
2022-10-03 05:01:15 GMT 51.136780 7.564235 34,925 128 522 1088
2022-10-03 05:01:13 GMT 51.140614 7.556610 34,800 128 522 1088
2022-10-03 05:01:10 GMT 51.144424 7.549018 34,800 128 522 1024
2022-10-03 05:01:08 GMT 51.149178 7.539597 34,750 128 522 1088
2022-10-03 05:01:05 GMT 51.153809 7.530534 34,700 128 522 1088
2022-10-03 05:01:02 GMT 51.158020 7.522146 34,600 128 522 1088
2022-10-03 05:00:59 GMT 51.163284 7.511679 34,575 128 522 1152
2022-10-03 05:00:56 GMT 51.167221 7.503885 34,525 128 522 1152
2022-10-03 05:00:53 GMT 51.170380 7.497649 34,475 128 522 1152
2022-10-03 05:00:51 GMT 51.173401 7.491637 34,450 128 522 1088
2022-10-03 05:00:49 GMT 51.176102 7.486292 34,425 128 522 1088
2022-10-03 05:00:47 GMT 51.179203 7.480164 34,400 128 522 1152
2022-10-03 05:00:45 GMT 51.183655 7.471297 34,325 128 522 1152
2022-10-03 05:00:42 GMT 51.187592 7.463503 34,275 128 522 1152
2022-10-03 05:00:39 GMT 51.193542 7.451630 34,200 128 522 1152
2022-10-03 05:00:36 GMT 51.196335 7.446058 34,175 128 522 1152
2022-10-03 05:00:34 GMT 51.200684 7.437373 33,975 128 523 1216
2022-10-03 05:00:31 GMT 51.208302 7.422256 34,025 128 523 1216
2022-10-03 05:00:28 GMT 51.208302 7.422256 34,000 128 523 1216
2022-10-03 05:00:26 GMT 51.210800 7.417256 33,975 128 523 1216
2022-10-03 05:00:24 GMT 51.214554 7.409759 33,800 128 523 1216
2022-10-03 05:00:21 GMT 51.220276 7.398327 33,825 128 523 1280
2022-10-03 05:00:18 GMT 51.224129 7.390671 33,800 128 523 1216
2022-10-03 05:00:16 GMT 51.226547 7.385864 33,775 128 523 1216
2022-10-03 05:00:14 GMT 51.229614 7.379695 33,700 128 523 1280
2022-10-03 05:00:11 GMT 51.236710 7.365516 33,625 128 523 1280
2022-10-03 05:00:09 GMT 51.236710 7.365516 33,575 128 523 1152
2022-10-03 05:00:06 GMT 51.245590 7.347701 33,550 128 523 1216
2022-10-03 05:00:04 GMT 51.245590 7.347701 33,500 128 523 1152
2022-10-03 05:00:01 GMT 51.249527 7.339832 33,450 128 523 1152
2022-10-03 04:59:59 GMT 51.251827 7.335205 33,425 128 523 1152
2022-10-03 04:59:56 GMT 51.256992 7.324905 33,325 128 525 1344
2022-10-03 04:59:54 GMT 51.260765 7.317352 33,325 128 525 1344
2022-10-03 04:59:51 GMT 51.264587 7.309694 33,250 128 525 1344
2022-10-03 04:59:49 GMT 51.267654 7.303467 33,150 128 525 1344
2022-10-03 04:59:47 GMT 51.269852 7.299079 33,175 128 525 1344
2022-10-03 04:59:45 GMT 51.272961 7.292862 33,100 128 525 1280
2022-10-03 04:59:43 GMT 51.275799 7.287140 33,075 128 524 1344
2022-10-03 04:59:41 GMT 51.279572 7.279587 33,025 128 524 1344
2022-10-03 04:59:39 GMT 51.283203 7.272339 32,975 128 525 1344
2022-10-03 04:59:36 GMT 51.291767 7.255020 32,875 128 525 1344
2022-10-03 04:59:33 GMT 51.291767 7.255020 32,850 128 525 1280
2022-10-03 04:59:31 GMT 51.294933 7.248688 32,800 128 525 1280
2022-10-03 04:59:28 GMT 51.299774 7.238998 32,725 128 525 1280
2022-10-03 04:59:25 GMT 51.302994 7.232493 32,650 128 525 1280
2022-10-03 04:59:22 GMT 51.308395 7.221506 32,625 128 525 1344
2022-10-03 04:59:20 GMT 51.310017 7.218323 32,600 128 525 1344
2022-10-03 04:59:18 GMT 51.318329 7.201464 32,475 128 526 1344
2022-10-03 04:59:15 GMT 51.322025 7.193985 32,450 128 526 1280
2022-10-03 04:59:13 GMT 51.322025 7.193985 32,400 128 526 1280
2022-10-03 04:59:10 GMT 51.325424 7.187211 32,375 128 526 1280
2022-10-03 04:59:08 GMT 51.327942 7.182015 32,300 128 526 1280
2022-10-03 04:59:06 GMT 51.332546 7.172699 32,175 128 525 1344
2022-10-03 04:59:03 GMT 51.337280 7.163160 32,200 128 525 1344
2022-10-03 04:59:00 GMT 51.340786 7.155991 32,125 128 525 1344
2022-10-03 04:58:58 GMT 51.344009 7.149427 32,075 128 526 1344
2022-10-03 04:58:55 GMT 51.347946 7.141484 32,050 128 526 1344
2022-10-03 04:58:53 GMT 51.352192 7.132797 31,975 128 526 1408
2022-10-03 04:58:50 GMT 51.355728 7.125599 31,875 128 526 1408
2022-10-03 04:58:48 GMT 51.363598 7.109604 31,825 128 526 1344
2022-10-03 04:58:45 GMT 51.363598 7.109604 31,775 128 526 1344
2022-10-03 04:58:43 GMT 51.366623 7.103500 31,700 128 526 1344
2022-10-03 04:58:40 GMT 51.370148 7.096351 31,675 128 526 1344
2022-10-03 04:58:38 GMT 51.374584 7.087326 31,625 128 526 1408
2022-10-03 04:58:35 GMT 51.378494 7.079391 31,575 128 526 1408
2022-10-03 04:58:33 GMT 51.382187 7.071929 31,525 128 526 1408
2022-10-03 04:58:30 GMT 51.385849 7.064438 31,450 128 526 1344
2022-10-03 04:58:28 GMT 51.393856 7.048264 30,725 128 526 1344
2022-10-03 04:58:25 GMT 51.393856 7.048264 31,350 128 526 1344
2022-10-03 04:58:23 GMT 51.396194 7.043573 31,250 128 526 1344
2022-10-03 04:58:20 GMT 51.400681 7.034368 31,225 128 526 1344
2022-10-03 04:58:18 GMT 51.403912 7.027817 31,150 128 526 1344
2022-10-03 04:58:16 GMT 51.408508 7.018482 31,100 128 526 1344
2022-10-03 04:58:13 GMT 51.411804 7.011801 31,050 128 526 1408
2022-10-03 04:58:10 GMT 51.417252 7.000815 31,000 128 526 1408
2022-10-03 04:58:07 GMT 51.425079 6.984929 30,900 128 526 1408
2022-10-03 04:58:04 GMT 51.425079 6.984929 30,825 128 526 1408
2022-10-03 04:58:01 GMT 51.430618 6.973646 30,725 128 526 1408
2022-10-03 04:57:58 GMT 51.438080 6.958466 30,700 128 526 1344
2022-10-03 04:57:55 GMT 51.438080 6.958466 30,675 128 526 1344
2022-10-03 04:57:53 GMT 51.441853 6.950836 30,600 128 526 1408
2022-10-03 04:57:50 GMT 51.451538 6.931185 30,500 128 526 1472
2022-10-03 04:57:47 GMT 51.451538 6.931185 30,450 128 526 1472
2022-10-03 04:57:44 GMT 51.457634 6.918793 30,375 128 525 960
2022-10-03 04:57:42 GMT 51.457634 6.918793 30,375 128 526 1216
2022-10-03 04:57:40 GMT 51.462288 6.909332 30,325 128 525 960
2022-10-03 04:57:37 GMT 51.466805 6.900177 30,250 128 525 960
2022-10-03 04:57:34 GMT 51.470390 6.892776 30,225 128 524 1024
2022-10-03 04:57:32 GMT 51.472549 6.888428 30,150 128 524 1152
2022-10-03 04:57:30 GMT 51.476898 6.879520 30,000 128 524 1216
2022-10-03 04:57:27 GMT 51.481522 6.870092 30,075 128 524 1088
2022-10-03 04:57:24 GMT 51.484680 6.863708 30,000 128 522 960
2022-10-03 04:57:21 GMT 51.489899 6.853019 29,850 128 522 960
2022-10-03 04:57:18 GMT 51.494457 6.843796 29,925 128 522 960
2022-10-03 04:57:15 GMT 51.498962 6.834535 29,875 128 521 1088
2022-10-03 04:57:13 GMT 51.501858 6.828613 29,825 128 520 1088
2022-10-03 04:57:10 GMT 51.505581 6.820984 29,800 128 519 960
2022-10-03 04:57:07 GMT 51.510330 6.811295 29,775 128 519 960
2022-10-03 04:57:05 GMT 51.514572 6.802690 29,675 128 519 960
2022-10-03 04:57:02 GMT 51.517872 6.795883 29,650 128 518 1024
2022-10-03 04:57:00 GMT 51.521130 6.789169 29,625 128 518 1088
2022-10-03 04:56:57 GMT 51.524139 6.783018 29,575 128 517 1088
2022-10-03 04:56:55 GMT 51.528671 6.773834 29,500 128 517 1088
2022-10-03 04:56:52 GMT 51.533020 6.764906 29,500 127 510 1024
2022-10-03 04:56:50 GMT 51.536167 6.758423 29,425 128 515 960
2022-10-03 04:56:47 GMT 51.540730 6.749115 29,400 128 515 960
2022-10-03 04:56:44 GMT 51.544144 6.742042 29,150 127 512 896
2022-10-03 04:56:42 GMT 51.547619 6.735001 29,275 128 514 1152
2022-10-03 04:56:39 GMT 51.552200 6.725563 29,250 127 513 1152
2022-10-03 04:56:36 GMT 51.557465 6.714725 29,200 127 513 1152
2022-10-03 04:56:33 GMT 51.565201 6.698839 29,125 127 512 960
2022-10-03 04:56:30 GMT 51.565201 6.698839 29,075 128 511 896
2022-10-03 04:56:27 GMT 51.568817 6.691416 29,075 127 510 896
2022-10-03 04:56:24 GMT 51.573269 6.682281 29,000 127 510 1024
2022-10-03 04:56:22 GMT 51.576828 6.674937 28,975 127 509 1152
2022-10-03 04:56:19 GMT 51.582321 6.663653 28,900 127 509 1088
2022-10-03 04:56:16 GMT 51.591053 6.645660 28,850 127 508 1024
2022-10-03 04:56:13 GMT 51.591053 6.645660 28,800 127 508 1024
2022-10-03 04:56:10 GMT 51.594131 6.639231 28,725 127 506 1088
2022-10-03 04:56:07 GMT 51.598549 6.630249 28,700 127 505 1088
2022-10-03 04:56:04 GMT 51.603195 6.620599 28,625 127 505 1024
2022-10-03 04:56:01 GMT 51.606216 6.614363 28,475 127 504 1024
2022-10-03 04:55:59 GMT 51.610462 6.605682 28,550 127 504 1024
2022-10-03 04:55:56 GMT 51.614281 6.597672 28,500 127 503 1088
2022-10-03 04:55:53 GMT 51.618145 6.589737 28,450 127 503 1152
2022-10-03 04:55:50 GMT 51.627914 6.569602 28,250 127 499 1152
2022-10-03 04:55:47 GMT 51.627914 6.569602 28,325 127 500 1024
2022-10-03 04:55:44 GMT 51.630936 6.563440 28,275 127 500 1088
2022-10-03 04:55:42 GMT 51.637932 6.548920 28,100 127 499 1152
2022-10-03 04:55:39 GMT 51.643661 6.537088 28,100 127 499 1152
2022-10-03 04:55:36 GMT 51.643661 6.537088 28,125 127 498 1216
2022-10-03 04:55:33 GMT 51.646587 6.531067 28,075 127 498 1216
2022-10-03 04:55:30 GMT 51.652176 6.519569 27,875 127 495 1152
2022-10-03 04:55:27 GMT 51.654968 6.513705 27,975 127 496 1216
2022-10-03 04:55:24 GMT 51.660461 6.502347 27,900 127 495 1152
2022-10-03 04:55:21 GMT 51.663208 6.496735 27,850 127 495 1152
2022-10-03 04:55:19 GMT 51.666092 6.490767 27,800 127 495 1152
2022-10-03 04:55:17 GMT 51.674286 6.473846 27,700 127 493 1088
2022-10-03 04:55:14 GMT 51.674286 6.473846 27,700 127 493 1088
2022-10-03 04:55:11 GMT 51.677307 6.467533 27,475 127 490 1280
2022-10-03 04:55:09 GMT 51.680923 6.460035 27,600 127 491 1152
2022-10-03 04:55:06 GMT 51.683926 6.453857 27,550 127 491 1216
2022-10-03 04:55:04 GMT 51.691635 6.437840 27,500 127 490 1280
2022-10-03 04:55:01 GMT 51.691635 6.437840 27,475 127 490 1280
2022-10-03 04:54:59 GMT 51.695190 6.430588 27,400 127 489 1216
2022-10-03 04:54:56 GMT 51.701614 6.417203 27,350 127 488 1216
2022-10-03 04:54:54 GMT 51.701614 6.417203 27,325 127 488 1216
2022-10-03 04:54:51 GMT 51.705990 6.408157 27,250 127 486 1152
2022-10-03 04:54:48 GMT 51.708939 6.401986 27,200 127 486 1216
2022-10-03 04:54:46 GMT 51.712555 6.394563 27,125 127 486 1152
2022-10-03 04:54:43 GMT 51.715767 6.387863 27,100 127 485 1088
2022-10-03 04:54:41 GMT 51.718735 6.381720 27,050 127 484 1024
2022-10-03 04:54:39 GMT 51.722260 6.374297 27,025 127 483 1024
2022-10-03 04:54:36 GMT 51.726192 6.366196 26,975 127 483 1152
2022-10-03 04:54:33 GMT 51.729450 6.359329 26,925 127 482 1216
2022-10-03 04:54:31 GMT 51.732292 6.353378 26,900 127 481 1280
2022-10-03 04:54:29 GMT 51.735828 6.346054 26,825 127 479 1024
2022-10-03 04:54:26 GMT 51.739334 6.338814 26,675 127 479 1024
2022-10-03 04:54:23 GMT 51.743046 6.331024 26,700 127 479 1024
2022-10-03 04:54:21 GMT 51.745747 6.325378 26,700 127 479 1024
2022-10-03 04:54:20 GMT 51.747711 6.321296 26,625 127 478 0
2022-10-03 04:54:18 GMT 51.750774 6.314926 26,625 127 477 1088
2022-10-03 04:54:15 GMT 51.759155 6.297393 26,550 127 476 1216
2022-10-03 04:54:12 GMT 51.759155 6.297393 26,500 127 475 1216
2022-10-03 04:54:09 GMT 51.763668 6.287994 26,425 127 474 1216
2022-10-03 04:54:06 GMT 51.767075 6.280839 26,325 127 473 1152
2022-10-03 04:54:03 GMT 51.771881 6.270818 26,325 127 472 1152
2022-10-03 04:54:00 GMT 51.774673 6.264954 26,275 127 472 1152
2022-10-03 04:53:58 GMT 51.778107 6.257679 26,225 127 470 1216
2022-10-03 04:53:55 GMT 51.782429 6.248627 26,175 127 470 1216
2022-10-03 04:53:52 GMT 51.785797 6.241571 26,125 127 469 1216
2022-10-03 04:53:49 GMT 51.788387 6.236191 26,100 127 469 1216
2022-10-03 04:53:46 GMT 51.793488 6.225536 26,000 127 467 1216
2022-10-03 04:53:43 GMT 51.797466 6.217117 25,925 127 466 1216
2022-10-03 04:53:40 GMT 51.800770 6.210251 25,900 127 465 1216
2022-10-03 04:53:38 GMT 51.803192 6.205197 25,850 127 465 1280
2022-10-03 04:53:35 GMT 51.811756 6.187210 25,750 127 464 1344
2022-10-03 04:53:32 GMT 51.811756 6.187210 25,700 127 463 1408
2022-10-03 04:53:29 GMT 51.815014 6.180344 25,625 127 462 1472
2022-10-03 04:53:27 GMT 51.818344 6.173351 25,575 127 461 1408
2022-10-03 04:53:24 GMT 51.822235 6.165186 25,475 127 461 1408
2022-10-03 04:53:21 GMT 51.826172 6.157020 25,350 127 460 1408
2022-10-03 04:53:18 GMT 51.830608 6.147614 25,100 127 453 1472
2022-10-03 04:53:15 GMT 51.833130 6.142322 25,125 127 457 1472
2022-10-03 04:53:13 GMT 51.836800 6.134567 25,225 127 457 1472
2022-10-03 04:53:10 GMT 51.839584 6.128738 25,200 127 457 1472
2022-10-03 04:53:08 GMT 51.842247 6.123199 25,075 127 456 1472
2022-10-03 04:53:05 GMT 51.845627 6.116044 25,050 127 456 1472
2022-10-03 04:53:03 GMT 51.848602 6.109809 25,025 127 456 1472
2022-10-03 04:53:01 GMT 51.856495 6.093216 24,925 127 455 1472
2022-10-03 04:52:58 GMT 51.856495 6.093216 24,850 127 453 1472
2022-10-03 04:52:55 GMT 51.859863 6.086129 24,800 127 453 1472
2022-10-03 04:52:52 GMT 51.862358 6.080856 24,725 127 453 1536
2022-10-03 04:52:50 GMT 51.865585 6.074029 24,675 127 452 1536
2022-10-03 04:52:48 GMT 51.868736 6.067429 24,650 127 452 1536
2022-10-03 04:52:45 GMT 51.871582 6.061410 24,550 127 450 1472
2022-10-03 04:52:42 GMT 51.878235 6.047363 24,475 127 450 1472
2022-10-03 04:52:40 GMT 51.878235 6.047363 24,425 127 450 1472
2022-10-03 04:52:38 GMT 51.880749 6.042023 24,275 127 448 1536
2022-10-03 04:52:35 GMT 51.884518 6.034012 24,300 127 448 1536
2022-10-03 04:52:32 GMT 51.887962 6.026840 24,200 127 448 1536
2022-10-03 04:52:30 GMT 51.891129 6.020062 24,175 127 447 1536
2022-10-03 04:52:27 GMT 51.895363 6.011248 24,100 127 446 1472
2022-10-03 04:52:24 GMT 51.898392 6.004892 23,975 127 445 1536
2022-10-03 04:52:21 GMT 51.902435 5.996246 23,950 127 444 1600
2022-10-03 04:52:18 GMT 51.906116 5.988491 23,825 127 443 1600
2022-10-03 04:52:15 GMT 51.909531 5.981216 23,775 127 443 1600
2022-10-03 04:52:13 GMT 51.912075 5.975856 23,700 127 443 1600
2022-10-03 04:52:10 GMT 51.920269 5.958514 23,625 127 440 1664
2022-10-03 04:52:07 GMT 51.920269 5.958514 23,575 127 440 1664
2022-10-03 04:52:04 GMT 51.926693 5.944938 23,400 127 440 1792
2022-10-03 04:52:01 GMT 51.926693 5.944938 23,375 127 439 1792
2022-10-03 04:51:58 GMT 51.931091 5.935669 23,275 127 438 1792
2022-10-03 04:51:55 GMT 51.934753 5.927811 23,225 127 438 1728
2022-10-03 04:51:53 GMT 51.936722 5.923691 23,175 127 438 1728
2022-10-03 04:51:51 GMT 51.939869 5.917079 23,100 127 437 1728
2022-10-03 04:51:48 GMT 51.943779 5.908761 23,000 127 436 1792
2022-10-03 04:51:45 GMT 51.947083 5.901699 22,925 127 436 1792
2022-10-03 04:51:43 GMT 51.949551 5.896519 22,875 127 435 1856
2022-10-03 04:51:41 GMT 51.952011 5.891190 22,800 127 435 1856
2022-10-03 04:51:38 GMT 51.955307 5.884247 22,725 127 434 1856
2022-10-03 04:51:36 GMT 51.957275 5.880127 22,625 127 434 1856
2022-10-03 04:51:33 GMT 51.961533 5.871048 22,550 127 433 1920
2022-10-03 04:51:31 GMT 51.967522 5.858303 22,400 127 432 1984
2022-10-03 04:51:28 GMT 51.967522 5.858303 22,400 127 432 1984
2022-10-03 04:51:25 GMT 51.970547 5.851868 22,200 127 432 2112
2022-10-03 04:51:22 GMT 51.976505 5.839233 22,150 127 432 2112
2022-10-03 04:51:19 GMT 51.977810 5.836408 22,075 127 431 2112
2022-10-03 04:51:17 GMT 51.980835 5.829973 21,975 127 431 1984
2022-10-03 04:51:14 GMT 51.983917 5.823441 21,900 127 431 1920
2022-10-03 04:51:12 GMT 51.987534 5.815735 21,825 127 429 1728
2022-10-03 04:51:09 GMT 51.990417 5.809555 21,750 127 429 1792
2022-10-03 04:51:07 GMT 51.992752 5.804548 21,650 127 428 2048
2022-10-03 04:51:04 GMT 51.995640 5.798427 21,600 127 428 2176
2022-10-03 04:51:02 GMT 52.003006 5.782776 21,500 127 428 2304
2022-10-03 04:50:59 GMT 52.003006 5.782776 21,400 127 428 2240
2022-10-03 04:50:56 GMT 52.005554 5.777239 21,250 127 427 2112
2022-10-03 04:50:53 GMT 52.013374 5.760681 21,175 127 427 2048
2022-10-03 04:50:50 GMT 52.013374 5.760681 21,050 127 426 2048
2022-10-03 04:50:47 GMT 52.017014 5.752945 21,000 127 426 2048
2022-10-03 04:50:44 GMT 52.019989 5.746613 20,750 127 425 2048
2022-10-03 04:50:42 GMT 52.021866 5.742569 20,775 127 425 2048
2022-10-03 04:50:40 GMT 52.025291 5.735334 19,825 127 415 1728
2022-10-03 04:50:37 GMT 52.029282 5.726852 20,650 127 423 1920
2022-10-03 04:50:34 GMT 52.031715 5.721680 20,550 127 423 1792
2022-10-03 04:50:32 GMT 52.034271 5.716248 20,500 127 422 1792
2022-10-03 04:50:30 GMT 52.037254 5.709830 20,450 127 421 1728
2022-10-03 04:50:27 GMT 52.040771 5.702362 20,350 127 420 1792
2022-10-03 04:50:25 GMT 52.042702 5.698216 20,225 127 419 1792
2022-10-03 04:50:22 GMT 52.046379 5.690526 20,150 127 417 1664
2022-10-03 04:50:19 GMT 52.049637 5.683541 20,075 127 417 1664
2022-10-03 04:50:16 GMT 52.052479 5.677577 20,075 127 416 1664
2022-10-03 04:50:14 GMT 52.056152 5.669708 19,975 127 415 1728
2022-10-03 04:50:11 GMT 52.060913 5.659561 19,850 127 413 1856
2022-10-03 04:50:08 GMT 52.062489 5.656233 19,775 127 413 1856
2022-10-03 04:50:05 GMT 52.066498 5.647736 19,700 127 412 1792
2022-10-03 04:50:03 GMT 52.072357 5.635223 19,625 127 411 1664
2022-10-03 04:50:00 GMT 52.072357 5.635223 19,525 127 408 1664
2022-10-03 04:49:57 GMT 52.075699 5.628204 19,475 127 407 1664
2022-10-03 04:49:54 GMT 52.078903 5.621338 19,425 127 407 1664
2022-10-03 04:49:52 GMT 52.081741 5.615311 19,300 127 404 1728
2022-10-03 04:49:49 GMT 52.084579 5.609207 19,225 127 404 1664
2022-10-03 04:49:46 GMT 52.087486 5.603027 19,200 127 403 1600
2022-10-03 04:49:44 GMT 52.090420 5.596828 19,100 127 401 1536
2022-10-03 04:49:41 GMT 52.093349 5.590550 19,050 127 400 1664
2022-10-03 04:49:38 GMT 52.096939 5.582733 18,975 127 398 1728
2022-10-03 04:49:35 GMT 52.100471 5.575248 18,875 127 397 1728
2022-10-03 04:49:33 GMT 52.102009 5.571952 18,850 126 396 1600
2022-10-03 04:49:31 GMT 52.104988 5.565517 18,775 126 394 1152
2022-10-03 04:49:28 GMT 52.108429 5.558014 18,725 126 384 768
2022-10-03 04:49:25 GMT 52.114380 5.545120 18,700 126 387 704
2022-10-03 04:49:22 GMT 52.114380 5.545120 18,675 126 385 768
2022-10-03 04:49:20 GMT 52.119186 5.534744 18,650 126 383 768
2022-10-03 04:49:18 GMT 52.119186 5.534744 18,625 126 381 704
2022-10-03 04:49:15 GMT 52.121841 5.529022 18,525 126 372 640
2022-10-03 04:49:13 GMT 52.123238 5.525966 18,575 126 373 640
2022-10-03 04:49:11 GMT 52.126007 5.519943 18,500 126 369 768
2022-10-03 04:49:08 GMT 52.129196 5.513096 18,500 126 367 832
2022-10-03 04:49:05 GMT 52.132641 5.505484 18,475 126 366 896
2022-10-03 04:49:02 GMT 52.135254 5.499878 18,425 126 364 896
2022-10-03 04:49:00 GMT 52.137249 5.495597 18,375 126 360 640
2022-10-03 04:48:57 GMT 52.140228 5.489005 18,375 126 358 576
2022-10-03 04:48:55 GMT 52.141533 5.486258 18,350 126 356 448
2022-10-03 04:48:53 GMT 52.143677 5.481567 18,350 126 355 448
2022-10-03 04:48:51 GMT 52.149307 5.469387 18,275 126 350 960
2022-10-03 04:48:48 GMT 52.149307 5.469387 18,250 126 348 1472
2022-10-03 04:48:45 GMT 52.151821 5.463893 18,200 126 347 1728
2022-10-03 04:48:43 GMT 52.153519 5.460281 18,150 126 347 1920
2022-10-03 04:48:41 GMT 52.156494 5.453796 18,100 126 345 2048
2022-10-03 04:48:38 GMT 52.158432 5.449533 17,775 126 345 2240
2022-10-03 04:48:35 GMT 52.161346 5.443192 17,850 126 344 2304
2022-10-03 04:48:33 GMT 52.163269 5.439072 17,650 126 343 2304
2022-10-03 04:48:30 GMT 52.167252 5.430374 17,600 126 343 2304
2022-10-03 04:48:27 GMT 52.169815 5.424805 17,500 126 341 2176
2022-10-03 04:48:24 GMT 52.172211 5.419556 17,375 126 341 2176
2022-10-03 04:48:21 GMT 52.174072 5.415497 17,300 126 340 2240
2022-10-03 04:48:19 GMT 52.180405 5.401664 17,175 126 340 2368
2022-10-03 04:48:16 GMT 52.180405 5.401664 17,050 126 338 2432
2022-10-03 04:48:13 GMT 52.182312 5.397491 16,975 126 338 2496
2022-10-03 04:48:11 GMT 52.183941 5.393895 16,850 126 338 2496
2022-10-03 04:48:08 GMT 52.187668 5.385733 16,725 126 338 2432
2022-10-03 04:48:05 GMT 52.190228 5.380240 16,650 126 338 2368
2022-10-03 04:48:03 GMT 52.191624 5.377101 16,400 126 335 2304
2022-10-03 04:48:00 GMT 52.194351 5.371170 14,675 113 326 2624
2022-10-03 04:47:57 GMT 52.197906 5.363368 16,325 126 335 2304
2022-10-03 04:47:54 GMT 52.199768 5.359288 16,275 126 335 2368
2022-10-03 04:47:52 GMT 52.202190 5.354109 16,125 126 334 2496
2022-10-03 04:47:49 GMT 52.204926 5.348129 16,025 127 333 2624
2022-10-03 04:47:46 GMT 52.207962 5.341631 15,875 127 333 2688
2022-10-03 04:47:43 GMT 52.210709 5.335667 15,750 127 333 2624
2022-10-03 04:47:40 GMT 52.216530 5.323347 15,575 127 332 2560
2022-10-03 04:47:37 GMT 52.216530 5.323347 15,450 128 331 2560
2022-10-03 04:47:34 GMT 52.218391 5.319423 15,350 128 331 2624
2022-10-03 04:47:32 GMT 52.219849 5.316315 15,350 128 331 2624
2022-10-03 04:47:30 GMT 52.222904 5.309928 13,425 75 308 2432
2022-10-03 04:47:27 GMT 52.226212 5.302658 14,975 122 329 2560
2022-10-03 04:47:24 GMT 52.227421 5.299648 14,900 119 328 2496
2022-10-03 04:47:22 GMT 52.228775 5.296173 14,900 118 328 2560
2022-10-03 04:47:20 GMT 52.231110 5.289230 14,700 113 326 2624
2022-10-03 04:47:17 GMT 52.232666 5.283890 14,575 110 325 2752
2022-10-03 04:47:14 GMT 52.234406 5.276969 14,425 104 323 2752
2022-10-03 04:47:11 GMT 52.235847 5.269985 14,375 103 322 2688
2022-10-03 04:47:09 GMT 52.236591 5.265276 14,275 100 322 2624
2022-10-03 04:47:06 GMT 52.237564 5.257111 14,125 96 319 2432
2022-10-03 04:47:03 GMT 52.237942 5.252407 14,050 93 318 2496
2022-10-03 04:47:01 GMT 52.238270 5.246207 13,925 90 317 2560
2022-10-03 04:46:59 GMT 52.238251 5.234375 13,350 73 306 2304
2022-10-03 04:46:56 GMT 52.238251 5.234375 13,700 81 312 2496
2022-10-03 04:46:53 GMT 52.237896 5.228394 13,625 80 311 2432
2022-10-03 04:46:51 GMT 52.236557 5.216980 13,525 76 309 2432
2022-10-03 04:46:49 GMT 52.235706 5.211757 13,400 74 307 2432
2022-10-03 04:46:46 GMT 52.235706 5.211757 13,350 73 306 2432
2022-10-03 04:46:43 GMT 52.234219 5.203517 13,200 73 306 2304
2022-10-03 04:46:41 GMT 52.232590 5.194650 13,125 73 304 2176
2022-10-03 04:46:39 GMT 52.232590 5.194650 13,025 73 304 2176
2022-10-03 04:46:36 GMT 52.231377 5.188137 12,925 73 302 2240
2022-10-03 04:46:33 GMT 52.230515 5.183411 12,850 73 301 2368
2022-10-03 04:46:31 GMT 52.229515 5.178092 12,750 73 300 2624
2022-10-03 04:46:28 GMT 52.227886 5.169146 12,575 73 300 2752
2022-10-03 04:46:25 GMT 52.227234 5.165693 12,425 73 299 2560
2022-10-03 04:46:22 GMT 52.225883 5.158552 12,350 73 299 2432
2022-10-03 04:46:20 GMT 52.225185 5.154707 12,225 73 298 2304
2022-10-03 04:46:17 GMT 52.222488 5.140268 12,075 73 295 2432
2022-10-03 04:46:14 GMT 52.222488 5.140268 12,000 73 296 2432
2022-10-03 04:46:11 GMT 52.221508 5.134931 11,925 73 295 2432
2022-10-03 04:46:08 GMT 52.220253 5.128104 11,750 73 294 2496
2022-10-03 04:46:05 GMT 52.219227 5.122532 11,600 73 294 2560
2022-10-03 04:46:02 GMT 52.217922 5.115548 11,550 73 293 2560
2022-10-03 04:46:00 GMT 52.217178 5.111546 11,400 73 293 2560
2022-10-03 04:45:57 GMT 52.214722 5.098343 11,275 73 292 2560
2022-10-03 04:45:54 GMT 52.214722 5.098343 11,200 73 292 2496
2022-10-03 04:45:52 GMT 52.213966 5.094203 11,100 73 292 2496
2022-10-03 04:45:50 GMT 52.213268 5.090437 11,000 73 291 2432
2022-10-03 04:45:47 GMT 52.211700 5.081940 10,850 72 290 2432
2022-10-03 04:45:44 GMT 52.210850 5.077410 10,775 72 289 2496
2022-10-03 04:45:42 GMT 52.210098 5.073395 10,700 72 289 2496
2022-10-03 04:45:40 GMT 52.209137 5.068359 10,575 72 288 2496
2022-10-03 04:45:37 GMT 52.208221 5.063553 10,425 72 288 2496
2022-10-03 04:45:34 GMT 52.206425 5.054182 10,350 72 288 2496
2022-10-03 04:45:32 GMT 52.206425 5.054182 10,325 72 288 2496
2022-10-03 04:45:30 GMT 52.205261 5.047982 9,975 72 287 2688
2022-10-03 04:45:27 GMT 52.204193 5.042568 10,025 72 286 2688
2022-10-03 04:45:24 GMT 52.202957 5.036163 9,925 72 286 2688
2022-10-03 04:45:22 GMT 52.202316 5.032883 9,850 72 286 2688
2022-10-03 04:45:20 GMT 52.201447 5.028305 9,700 72 286 2816
2022-10-03 04:45:17 GMT 52.200279 5.022243 9,575 72 286 2880
2022-10-03 04:45:14 GMT 52.198746 5.014572 9,450 72 286 2816
2022-10-03 04:45:11 GMT 52.197906 5.010158 8,925 72 284 2944
2022-10-03 04:45:08 GMT 52.196465 5.003017 9,125 72 284 2432
2022-10-03 04:45:05 GMT 52.195496 4.998016 9,025 72 284 2560
2022-10-03 04:45:02 GMT 52.193298 4.986930 8,925 72 283 2816
2022-10-03 04:45:00 GMT 52.193298 4.986930 8,800 72 284 3072
2022-10-03 04:44:57 GMT 52.192322 4.981829 8,625 72 284 3136
2022-10-03 04:44:54 GMT 52.190872 4.974594 8,550 72 285 3008
2022-10-03 04:44:52 GMT 52.190086 4.970372 8,450 72 285 2816
2022-10-03 04:44:50 GMT 52.189499 4.967422 8,375 72 285 2688
2022-10-03 04:44:47 GMT 52.188309 4.961319 8,175 73 284 2752
2022-10-03 04:44:44 GMT 52.186935 4.954147 8,075 73 284 2880
2022-10-03 04:44:42 GMT 52.186176 4.950126 8,000 73 284 2944
2022-10-03 04:44:40 GMT 52.185246 4.945260 7,850 73 284 2944
2022-10-03 04:44:37 GMT 52.184509 4.941025 7,700 73 284 2880
2022-10-03 04:44:34 GMT 52.183319 4.934692 7,575 73 284 2880
2022-10-03 04:44:31 GMT 52.182171 4.928231 7,500 73 284 2880
2022-10-03 04:44:29 GMT 52.181381 4.923680 7,325 73 284 2880
2022-10-03 04:44:26 GMT 52.180172 4.917167 7,150 73 283 2752
2022-10-03 04:44:23 GMT 52.179428 4.912949 7,075 73 283 2688
2022-10-03 04:44:21 GMT 52.178448 4.907514 7,000 74 283 2624
2022-10-03 04:44:19 GMT 52.177551 4.902496 6,850 76 283 2496
2022-10-03 04:44:16 GMT 52.176682 4.897385 6,725 80 283 2496
2022-10-03 04:44:13 GMT 52.176041 4.892349 6,650 83 283 2624
2022-10-03 04:44:11 GMT 52.175610 4.887425 6,575 87 284 2752
2022-10-03 04:44:09 GMT 52.175262 4.876404 6,400 91 285 2816
2022-10-03 04:44:06 GMT 52.175514 4.871024 6,275 98 285 2816
2022-10-03 04:44:03 GMT 52.175934 4.865452 6,200 99 286 2752
2022-10-03 04:44:01 GMT 52.175934 4.865452 6,100 101 285 2624
2022-10-03 04:43:59 GMT 52.177826 4.853973 6,000 108 285 2176
2022-10-03 04:43:56 GMT 52.178741 4.850159 5,875 116 282 2432
2022-10-03 04:43:53 GMT 52.178741 4.850159 5,800 116 282 2432
2022-10-03 04:43:51 GMT 52.180077 4.845442 5,725 118 281 2688
2022-10-03 04:43:49 GMT 52.183365 4.835663 5,525 119 281 2688
2022-10-03 04:43:46 GMT 52.183365 4.835663 5,450 120 280 2432
2022-10-03 04:43:43 GMT 52.186455 4.827000 5,375 120 278 2304
2022-10-03 04:43:41 GMT 52.187992 4.822684 5,275 120 276 2432
2022-10-03 04:43:39 GMT 52.187992 4.822684 5,200 120 276 2560
2022-10-03 04:43:36 GMT 52.189434 4.818760 5,025 120 275 2944
2022-10-03 04:43:33 GMT 52.191341 4.813346 4,925 120 275 2944
2022-10-03 04:43:31 GMT 52.193207 4.808273 4,850 120 274 2880
2022-10-03 04:43:29 GMT 52.194092 4.805655 4,800 120 274 2816
2022-10-03 04:43:26 GMT 52.195953 4.800476 4,575 120 273 2816
2022-10-03 04:43:23 GMT 52.197952 4.794983 4,425 120 272 2880
2022-10-03 04:43:21 GMT 52.199535 4.790510 4,375 120 272 2880
2022-10-03 04:43:19 GMT 52.200531 4.787750 4,200 120 272 2880
2022-10-03 04:43:16 GMT 52.204193 4.777405 4,075 120 270 2752
2022-10-03 04:43:13 GMT 52.204193 4.777405 3,950 120 270 2688
2022-10-03 04:43:10 GMT 52.206528 4.771042 3,850 120 268 2624
2022-10-03 04:43:08 GMT 52.207729 4.767596 3,675 120 267 2496
2022-10-03 04:43:05 GMT 52.209457 4.762802 3,600 120 267 2432
2022-10-03 04:43:02 GMT 52.211380 4.757385 3,550 120 265 2176
2022-10-03 04:42:59 GMT 52.213577 4.751358 3,400 120 261 1600
2022-10-03 04:42:56 GMT 52.215271 4.746552 3,300 120 258 1280
2022-10-03 04:42:52 GMT 52.217194 4.741211 3,300 119 253 1344
2022-10-03 04:42:49 GMT 52.219208 4.735489 3,150 119 247 1600
2022-10-03 04:42:46 GMT 52.220951 4.730556 3,125 119 245 1792
2022-10-03 04:42:43 GMT 52.222687 4.725647 2,975 119 243 2496
2022-10-03 04:42:40 GMT 52.224068 4.721688 2,925 119 243 2496
2022-10-03 04:42:38 GMT 52.225513 4.717529 2,775 120 241 2560
2022-10-03 04:42:35 GMT 52.227631 4.711456 2,650 122 240 2624
2022-10-03 04:42:32 GMT 52.228821 4.708405 2,600 124 240 2752
2022-10-03 04:42:29 GMT 52.230724 4.703953 2,350 135 240 2240
2022-10-03 04:42:26 GMT 52.233078 4.699707 2,275 141 238 1536
2022-10-03 04:42:23 GMT 52.235321 4.696426 2,175 148 233 1024
2022-10-03 04:42:20 GMT 52.237976 4.693298 2,175 152 231 896
2022-10-03 04:42:18 GMT 52.239616 4.691868 2,000 159 224 896
2022-10-03 04:42:15 GMT 52.242596 4.689514 2,100 161 222 960
2022-10-03 04:42:12 GMT 52.245575 4.687805 2,075 171 216 1088
2022-10-03 04:42:09 GMT 52.248138 4.686689 2,000 171 216 1088
2022-10-03 04:42:07 GMT 52.250565 4.686050 1,975 175 212 1088
2022-10-03 04:42:06 GMT 52.251488 4.685904 1,950 178 210 1024
2022-10-03 04:42:05 GMT 52.252464 4.685747 1,925 178 210 1024
2022-10-03 04:42:03 GMT 52.254234 4.685669 1,925 183 207 1152
2022-10-03 04:42:02 GMT 52.255306 4.685669 1,875 184 206 1216
2022-10-03 04:42:01 GMT 52.256329 4.685747 1,850 188 203 1280
2022-10-03 04:41:59 GMT 52.258301 4.686050 1,825 190 202 1344
2022-10-03 04:41:58 GMT 52.259262 4.686140 1,800 192 201 1408
2022-10-03 04:41:57 GMT 52.260101 4.686454 1,775 194 199 1344
2022-10-03 04:41:56 GMT 52.261124 4.686689 1,750 197 198 1216
2022-10-03 04:41:54 GMT 52.262802 4.687552 1,725 201 195 1024
2022-10-03 04:41:53 GMT 52.263702 4.688034 1,700 205 192 896
2022-10-03 04:41:52 GMT 52.264709 4.688572 1,675 205 192 896
2022-10-03 04:41:50 GMT 52.266357 4.689789 1,675 209 189 896
2022-10-03 04:41:49 GMT 52.267136 4.690475 1,650 213 186 960
2022-10-03 04:41:48 GMT 52.267921 4.691241 1,625 215 184 960
2022-10-03 04:41:47 GMT 52.268295 4.691633 1,600 217 183 1024
2022-10-03 04:41:46 GMT 52.270947 4.694615 1,550 220 180 1216
2022-10-03 04:41:44 GMT 52.270947 4.694615 1,550 222 179 1344
2022-10-03 04:41:43 GMT 52.271530 4.695358 1,525 223 177 1536
2022-10-03 04:41:42 GMT 52.272171 4.696274 1,500 225 176 1600
2022-10-03 04:41:41 GMT 52.272812 4.697205 1,450 227 176 1920
2022-10-03 04:41:39 GMT 52.273499 4.698257 1,375 229 175 2112
2022-10-03 04:41:38 GMT 52.274643 4.700317 1,325 234 175 2432
2022-10-03 04:41:36 GMT 52.275101 4.701233 1,300 234 175 2496
2022-10-03 04:41:35 GMT 52.275604 4.702225 1,250 236 174 2560
2022-10-03 04:41:33 GMT 52.276672 4.704660 1,125 237 174 2624
2022-10-03 04:41:32 GMT 52.277184 4.705837 1,125 238 173 2624
2022-10-03 04:41:31 GMT 52.277573 4.706879 1,050 239 174 2624
2022-10-03 04:41:30 GMT 52.278442 4.709167 1,025 239 174 2624
2022-10-03 04:41:28 GMT 52.278900 4.710388 950 239 174 2560
2022-10-03 04:41:27 GMT 52.279140 4.711016 900 239 174 2560
2022-10-03 04:41:25 GMT 52.280182 4.713745 850 239 174 2560
2022-10-03 04:41:24 GMT 52.280399 4.714312 775 239 174 2496
2022-10-03 04:41:23 GMT 52.280960 4.715805 725 238 173 2496
2022-10-03 04:41:21 GMT 52.281796 4.718000 700 238 173 2496
2022-10-03 04:41:20 GMT 52.282150 4.718933 600 238 173 2496
2022-10-03 04:41:19 GMT 52.282608 4.720078 550 238 173 2496
2022-10-03 04:41:18 GMT 52.283005 4.721139 500 238 173 2496
2022-10-03 04:41:17 GMT 52.283890 4.723415 400 238 173 2432
2022-10-03 04:41:15 GMT 52.284302 4.724503 375 238 173 2368
2022-10-03 04:41:14 GMT 52.284714 4.725571 350 238 173 2304
2022-10-03 04:41:13 GMT 52.285191 4.726711 325 238 172 2240
2022-10-03 04:41:10 GMT 52.286495 4.730164 225 238 171 2112
2022-10-03 04:41:09 GMT 52.286961 4.731419 175 238 171 2176
2022-10-03 04:41:07 GMT 52.287846 4.733695 150 238 170 2240
2022-10-03 04:41:06 GMT 52.288311 4.734872 50 238 169 2112
2022-10-03 04:41:05 GMT 52.288742 4.736023 0 238 169 2112
2022-10-03 04:41:03 GMT 52.289383 4.737701 -25 239 169 2176
2022-10-03 04:41:02 GMT 52.289803 4.738796 -75 239 168 2112
2022-10-03 04:41:01 GMT 52.290218 4.739973 -100 239 167 1920
2022-10-03 04:40:59 GMT 52.291031 4.742050 -175 239 167 1664
2022-10-03 04:40:57 GMT 52.291897 4.744367 -225 239 164 1344
2022-10-03 04:40:54 GMT 52.293804 4.749311 -300 239 161 1216
2022-10-03 04:40:51 GMT 52.294178 4.750410 -325 238 147 128
2022-10-03 04:40:48 GMT 52.295334 4.753342 -350 238 147 128
2022-10-03 04:40:47 GMT 52.295654 4.754257 -350 238 145 128
2022-10-03 04:40:46 GMT 52.296040 4.755197 -325 238 138 0
2022-10-03 04:40:40 GMT 52.298367 4.761318 -325 238 118 0
2022-10-03 04:40:39 GMT 52.298645 4.762102 -325 238 114 64
2022-10-03 04:40:33 GMT 52.301170 4.768620 0 236 78
2022-10-03 04:40:28 GMT 52.301170 4.768620 0 236 78
2022-10-03 04:40:23 GMT 52.302097 4.771042 0 236 56
2022-10-03 04:40:20 GMT 52.302452 4.771951 0 236 43
2022-10-03 04:40:14 GMT 52.303082 4.773540 0 236 43
2022-10-03 04:40:09 GMT 52.303185 4.773815 0 233 3
2022-10-03 04:40:02 GMT 52.303207 4.773865 0 233 0
2022-10-03 04:39:59 GMT 52.303207 4.773873 0 233 0
2022-10-03 04:39:52 GMT 52.303219 4.773873 0 233 0
2022-10-03 04:39:49 GMT 52.303219 4.773865 0 233 0
2022-10-03 04:39:38 GMT 52.303299 4.774075 0 157 7
2022-10-03 04:39:34 GMT 52.303406 4.774109 0 157 7
2022-10-03 04:39:23 GMT 52.303814 4.773873 0 185 11
2022-10-03 04:39:18 GMT 52.304020 4.773903 0 196 9
2022-10-03 04:39:15 GMT 52.304157 4.773979 0 199 9
2022-10-03 04:39:13 GMT 52.304245 4.774050 0 196 8
2022-10-03 04:39:07 GMT 52.304398 4.774132 0 185 6
2022-10-03 04:39:06 GMT 52.304432 4.774132 0 182 5
2022-10-03 04:38:15 GMT 52.304558 4.774148 0 174 0
2022-10-03 04:38:10 GMT 52.304569 4.774151 0 174 0
2022-10-03 04:38:07 GMT 52.304569 4.774148 0 174 0
2022-10-03 04:38:04 GMT 52.304569 4.774151 0 174 0
2022-10-03 04:37:59 GMT 52.304569 4.774148 0 174 0
2022-10-03 04:37:57 GMT 52.304569 4.774148 0 174 0
2022-10-03 04:37:54 GMT 52.304569 4.774151 0 174 0
2022-10-03 04:37:53 GMT 52.304569 4.774148 0 174 0
2022-10-03 04:37:50 GMT 52.304569 4.774151 0 174 0
2022-10-03 04:37:49 GMT 52.304569 4.774148 0 174 0
2022-10-03 04:37:47 GMT 52.304558 4.774151 0 174 1
2022-10-03 04:37:37 GMT 52.304695 4.774132 0 160 7
2022-10-03 04:37:26 GMT 52.304989 4.773893 0 149 9
2022-10-03 04:37:22 GMT 52.305119 4.773769 0 149 9
2022-10-03 04:37:17 GMT 52.305290 4.773598 0 149 9
2022-10-03 04:37:11 GMT 52.305508 4.773369 0 154 9
2022-10-03 04:37:07 GMT 52.305634 4.773273 0 165 9
2022-10-03 04:37:03 GMT 52.305828 4.773197 0 194 10
2022-10-03 04:36:54 GMT 52.306129 4.773461 0 233 11
2022-10-03 04:36:52 GMT 52.306187 4.773599 0 236 12
2022-10-03 04:36:45 GMT 52.306396 4.774089 0 225 11
2022-10-03 04:36:40 GMT 52.306812 4.774513 0 188 12
2022-10-03 04:36:35 GMT 52.306812 4.774513 0 188 12
2022-10-03 04:36:32 GMT 52.306980 4.774560 0 182 12
2022-10-03 04:36:31 GMT 52.307014 4.774560 0 182 12
2022-10-03 04:36:30 GMT 52.307144 4.774570 0 182 12
2022-10-03 04:36:28 GMT 52.307190 4.774570 0 182 12
2022-10-03 04:36:27 GMT 52.307247 4.774580 0 182 12
2022-10-03 04:36:26 GMT 52.307304 4.774590 0 182 12
2022-10-03 04:36:25 GMT 52.307453 4.774590 0 182 13
2022-10-03 04:36:23 GMT 52.307453 4.774590 0 182 13
2022-10-03 04:36:20 GMT 52.307644 4.774599 0 182 14
2022-10-03 04:36:18 GMT 52.307728 4.774609 0 182 15
2022-10-03 04:36:16 GMT 52.307877 4.774619 0 182 17
2022-10-03 04:36:14 GMT 52.307991 4.774639 0 182 18
2022-10-03 04:36:13 GMT 52.308071 4.774647 0 182 18
2022-10-03 04:36:08 GMT 52.308540 4.774704 0 182 22
2022-10-03 04:36:03 GMT 52.309097 4.774737 0 182 22
2022-10-03 04:35:56 GMT 52.309795 4.774796 0 182 21
2022-10-03 04:35:46 GMT 52.310726 4.774895 0 182 19
2022-10-03 04:35:42 GMT 52.311005 4.774913 0 182 18
2022-10-03 04:35:34 GMT 52.311676 4.774990 0 182 16
2022-10-03 04:35:29 GMT 52.311996 4.775028 0 182 15
2022-10-03 04:35:28 GMT 52.312065 4.775031 0 182 15
2022-10-03 04:35:25 GMT 52.312271 4.775047 0 180 14
2022-10-03 04:35:23 GMT 52.312466 4.775047 0 174 13
2022-10-03 04:35:21 GMT 52.312519 4.775031 0 171 13
2022-10-03 04:35:20 GMT 52.312576 4.775011 0 168 12
2022-10-03 04:35:19 GMT 52.312637 4.775009 0 165 12
2022-10-03 04:35:16 GMT 52.312809 4.774952 0 157 13
2022-10-03 04:35:15 GMT 52.312832 4.774933 0 157 13
2022-10-03 04:35:12 GMT 52.313007 4.774796 0 146 14
2022-10-03 04:35:11 GMT 52.313061 4.774742 0 143 15
2022-10-03 04:35:08 GMT 52.313210 4.774551 0 137 15
2022-10-03 04:35:03 GMT 52.313461 4.774148 0 129 16
2022-10-03 04:34:59 GMT 52.313660 4.773756 0 129 18
2022-10-03 04:34:56 GMT 52.313793 4.773502 0 129 18
2022-10-03 04:34:55 GMT 52.313858 4.773383 0 129 18
2022-10-03 04:34:53 GMT 52.313931 4.773235 0 132 18
2022-10-03 04:34:51 GMT 52.314091 4.772951 0 132 18
2022-10-03 04:34:49 GMT 52.314194 4.772758 0 132 18
2022-10-03 04:34:37 GMT 52.314777 4.771404 0 106 19
2022-10-03 04:34:32 GMT 52.314846 4.770735 0 92 21
2022-10-03 04:34:31 GMT 52.314857 4.770578 0 90 21
2022-10-03 04:34:29 GMT 52.314846 4.770260 0 87 22
2022-10-03 04:34:28 GMT 52.314846 4.770107 0 87 22
2022-10-03 04:34:25 GMT 52.314823 4.769611 0 87 21
2022-10-03 04:34:22 GMT 52.314812 4.769173 0 87 20
2022-10-03 04:34:20 GMT 52.314800 4.768658 0 84 19
2022-10-03 04:34:19 GMT 52.314800 4.768658 0 84 19
2022-10-03 04:34:17 GMT 52.314789 4.768518 0 87 19
2022-10-03 04:34:15 GMT 52.314777 4.768263 0 87 18
2022-10-03 04:34:13 GMT 52.314766 4.767971 0 87 17
2022-10-03 04:34:11 GMT 52.314766 4.767723 0 87 17
2022-10-03 04:34:08 GMT 52.314754 4.767361 0 87 16
2022-10-03 04:34:06 GMT 52.314743 4.767017 0 87 15
2022-10-03 04:34:05 GMT 52.314743 4.767017 0 87 15
2022-10-03 04:34:04 GMT 52.314732 4.766909 0 87 15
2022-10-03 04:34:00 GMT 52.314720 4.766464 0 87 14
2022-10-03 04:33:59 GMT 52.314716 4.766360 0 87 14
2022-10-03 04:33:57 GMT 52.314709 4.766144 0 87 14
2022-10-03 04:33:56 GMT 52.314709 4.766045 0 87 14
2022-10-03 04:33:48 GMT 52.314663 4.765282 0 81 13
2022-10-03 04:33:46 GMT 52.314651 4.765072 0 75 12
2022-10-03 04:33:44 GMT 52.314613 4.764849 0 67 12
2022-10-03 04:33:42 GMT 52.314583 4.764709 0 61 12
2022-10-03 04:33:40 GMT 52.314522 4.764535 0 53 13
2022-10-03 04:33:38 GMT 52.314457 4.764366 0 36 12
2022-10-03 04:33:37 GMT 52.314415 4.764319 0 30 12
2022-10-03 04:33:36 GMT 52.314354 4.764252 0 25 12
2022-10-03 04:33:34 GMT 52.314262 4.764175 0 16 12
2022-10-03 04:33:27 GMT 52.313904 4.764123 0 340 11
2022-10-03 04:33:26 GMT 52.313805 4.764175 0 334 10
2022-10-03 04:33:23 GMT 52.313736 4.764233 0 329 10
2022-10-03 04:33:21 GMT 52.313637 4.764300 0 317 10
2022-10-03 04:33:20 GMT 52.313553 4.764423 0 303 10
2022-10-03 04:33:16 GMT 52.313484 4.764555 0 289 10
2022-10-03 04:33:15 GMT 52.313450 4.764731 0 275 9
2022-10-03 04:32:46 GMT 52.313690 4.765568 0 213 0
2022-10-03 04:31:41 GMT 52.313683 4.765555 0 213 0
2022-10-03 04:31:20 GMT 52.313690 4.765568 0 213 0
2022-10-03 04:30:45 GMT 52.313683 4.765555 0 213 0
2022-10-03 04:30:43 GMT 52.313690 4.765568 0 213 0
2022-10-03 04:30:36 GMT 52.313683 4.765555 0 213 0
2022-10-03 04:30:28 GMT 52.313690 4.765568 0 213 0
2022-10-03 04:30:25 GMT 52.313690 4.765568 0 213 0
2022-10-03 04:30:17 GMT 52.313690 4.765568 0 213 3
2022-10-03 04:30:10 GMT 52.313614 4.765477 0 216 4
2022-10-03 04:30:08 GMT 52.313580 4.765438 0 216 4
2022-10-03 04:30:05 GMT 52.313541 4.765398 0 213 4
2022-10-03 04:30:04 GMT 52.313530 4.765379 0 213 4
2022-10-03 04:30:01 GMT 52.313484 4.765339 0 210 4
2022-10-03 04:29:58 GMT 52.313438 4.765301 0 210 4
2022-10-03 04:29:55 GMT 52.313416 4.765261 0 210 4
2022-10-03 04:29:51 GMT 52.313370 4.765224 0 208 3
2022-10-03 04:29:47 GMT 52.313320 4.765182 0 210 3
2022-10-03 04:29:45 GMT 52.313301 4.765167 0 210 4
2022-10-03 04:29:40 GMT 52.313217 4.765084 0 208 4
2022-10-03 04:29:38 GMT 52.313217 4.765084 0 208 4
2022-10-03 04:29:37 GMT 52.313198 4.765072 0 208 4
2022-10-03 04:29:36 GMT 52.313187 4.765053 0 208 4
2022-10-03 04:29:33 GMT 52.313133 4.765006 0 210 4
2022-10-03 04:29:29 GMT 52.313087 4.764947 0 213 4
2022-10-03 04:29:28 GMT 52.313076 4.764927 0 213 4
2022-10-03 04:29:26 GMT 52.313049 4.764900 0 213 4
2022-10-03 04:29:23 GMT 52.313007 4.764849 0 213 4
2022-10-03 04:29:22 GMT 52.312996 4.764829 0 213 4
2022-10-03 04:29:20 GMT 52.312973 4.764810 0 216 4
2022-10-03 04:29:18 GMT 52.312946 4.764767 0 216 4
2022-10-03 04:29:15 GMT 52.312916 4.764731 0 216 4
2022-10-03 04:29:11 GMT 52.312866 4.764672 0 216 4
2022-10-03 04:29:09 GMT 52.312843 4.764633 0 216 3
2022-10-03 04:29:04 GMT 52.312786 4.764576 0 213 4
2022-10-03 04:29:03 GMT 52.312775 4.764557 0 213 4
2022-10-03 04:29:02 GMT 52.312740 4.764535 0 216 4
2022-10-03 04:28:59 GMT 52.312717 4.764496 0 213 4
2022-10-03 04:28:57 GMT 52.312695 4.764476 0 213 4
2022-10-03 04:28:55 GMT 52.312672 4.764457 0 208 4
2022-10-03 04:28:54 GMT 52.312649 4.764462 0 208 4
2022-10-03 04:28:52 GMT 52.312626 4.764442 0 202 4
2022-10-03 04:28:46 GMT 52.312519 4.764437 0 191 4
2022-10-03 04:28:44 GMT 52.312500 4.764423 0 188 4
2022-10-03 04:28:42 GMT 52.312454 4.764423 0 185 4
2022-10-03 04:28:41 GMT 52.312443 4.764423 0 185 4
2022-10-03 04:28:40 GMT 52.312420 4.764423 0 182 4
2022-10-03 04:28:34 GMT 52.312328 4.764442 0 177 5
2022-10-03 04:28:33 GMT 52.312298 4.764437 0 180 5
2022-10-03 04:28:28 GMT 52.312202 4.764442 0 180 5

Making use of Plane Finder data

You are free to use the raw flight data, aircraft information and images provided in this report for your own purposes provided the data is correctly attributed to Plane Finder. We ask that you please credit Plane Finder and link to planefinder.net in close proximity to the content.

Optionally one of the following logos (no smaller then 150x24px) can be used and must link to planefinder.net

Embedding the Plane Finder map

You are welcome to embed the Plane Finder playback map on your website to offer visitors a more interactive experience. We suggest using the following HTML code:

<iframe src="//planefinder.net/data/report/HV5801-PH-HXB-7700-squawk-2022-10-03/map" width="800" height="600" seamless="seamless"></iframe>

Where our data comes from

Plane Finder has a global network of data feeds and antenna radars that receive data broadcast directly from aircraft. The primary technologies used are ADS-B and MLAT. We also show feeds from the FAA and a FLARM glider feed.

Click here to find out more about the Plane Finder network.

How we collect our data